Observation data for Amarillo 7 South Southeast on 01/22/2019      Previous  Date  Next       Current Mesonet Observations  Soil Data  Daily Summary Page  Observations in Plain Language
KAM1 220600Z 20015KT 11/M02 A2959 RMK A01 T01131022  RH  039%=      5-min Rain = 0
KAM1 220601Z 20016G22KT 11/M02 A2959 RMK A01 T01121022  RH  039%=      5-min Rain = 0
KAM1 220602Z 20017G22KT 11/M02 A2959 RMK A01 T01121021  RH  039%=      5-min Rain = 0
KAM1 220603Z 20015G21KT 11/M02 A2959 RMK A01 T01131021  RH  039%=      5-min Rain = 0
KAM1 220604Z 20018G25KT 11/M02 A2959 RMK A01 T01121021  RH  040%=      5-min Rain = 0
KAM1 220605Z 20017KT 11/M02 A2959 RMK A01 T01121020  RH  040%=      5-min Rain = 0
KAM1 220606Z 20016KT 11/M02 A2959 RMK A01 T01121020  RH  040%=      5-min Rain = 0
KAM1 220607Z 20017KT 11/M02 A2959 RMK A01 T01121019  RH  040%=      5-min Rain = 0
KAM1 220608Z 20018KT 11/M02 A2959 RMK A01 T01121019  RH  040%=      5-min Rain = 0
KAM1 220609Z 20017KT 11/M02 A2959 RMK A01 T01121019  RH  040%=      5-min Rain = 0
KAM1 220610Z 20019KT 11/M02 A2959 RMK A01 T01111019  RH  040%=      5-min Rain = 0
KAM1 220611Z 20018G24KT 11/M02 A2959 RMK A01 T01111018  RH  040%=      5-min Rain = 0
KAM1 220612Z 20018KT 11/M02 A2959 RMK A01 T01111018  RH  040%=      5-min Rain = 0
KAM1 220613Z 20017KT 11/M02 A2959 RMK A01 T01111018  RH  041%=      5-min Rain = 0
KAM1 220614Z 20017KT 11/M02 A2959 RMK A01 T01101018  RH  041%=      5-min Rain = 0
KAM1 220615Z 20016G22KT 11/M02 A2959 RMK A01 T01101018  RH  041%=      5-min Rain = 0
KAM1 220616Z 21016G21KT 11/M02 A2959 RMK A01 T01091018  RH  041%=      5-min Rain = 0
KAM1 220617Z 21018KT 11/M02 A2959 RMK A01 T01091017  RH  041%=      5-min Rain = 0
KAM1 220618Z 20017G22KT 11/M02 A2959 RMK A01 T01091017  RH  041%=      5-min Rain = 0
KAM1 220619Z 21017KT 11/M02 A2959 RMK A01 T01081017  RH  042%=      5-min Rain = 0
KAM1 220620Z 21016KT 11/M02 A2959 RMK A01 T01081017  RH  042%=      5-min Rain = 0
KAM1 220621Z 21014G19KT 11/M02 A2959 RMK A01 T01071017  RH  042%=      5-min Rain = 0
KAM1 220622Z 21018G26KT 11/M02 A2959 RMK A01 T01061017  RH  042%=      5-min Rain = 0
KAM1 220623Z 20016KT 11/M02 A2959 RMK A01 T01061017  RH  042%=      5-min Rain = 0
KAM1 220624Z 21019KT 11/M02 A2958 RMK A01 T01061017  RH  042%=      5-min Rain = 0
KAM1 220625Z 20019KT 11/M02 A2958 RMK A01 T01071016  RH  042%=      5-min Rain = 0
KAM1 220626Z 20019KT 11/M02 A2958 RMK A01 T01081016  RH  042%=      5-min Rain = 0
KAM1 220627Z 20017KT 11/M02 A2958 RMK A01 T01071016  RH  042%=      5-min Rain = 0
KAM1 220628Z 21019KT 11/M02 A2958 RMK A01 T01081016  RH  042%=      5-min Rain = 0
KAM1 220629Z 20015KT 11/M02 A2958 RMK A01 T01071016  RH  042%=      5-min Rain = 0
KAM1 220630Z 20017KT 11/M02 A2959 RMK A01 T01061016  RH  042%=      5-min Rain = 0
KAM1 220631Z 21020KT 11/M02 A2958 RMK A01 T01051016  RH  043%=      5-min Rain = 0
KAM1 220632Z 20020G25KT 11/M02 A2958 RMK A01 T01061015  RH  043%=      5-min Rain = 0
KAM1 220633Z 21017KT 11/M02 A2959 RMK A01 T01071015  RH  042%=      5-min Rain = 0
KAM1 220634Z 20019G24KT 11/M02 A2958 RMK A01 T01071015  RH  042%=      5-min Rain = 0
KAM1 220635Z 21019KT 11/M02 A2958 RMK A01 T01071015  RH  042%=      5-min Rain = 0
KAM1 220636Z 20019KT 11/M02 A2958 RMK A01 T01071016  RH  042%=      5-min Rain = 0
KAM1 220637Z 20015KT 11/M02 A2959 RMK A01 T01071015  RH  042%=      5-min Rain = 0
KAM1 220638Z 21018KT 11/M02 A2959 RMK A01 T01071016  RH  043%=      5-min Rain = 0
KAM1 220639Z 21019KT 11/M02 A2959 RMK A01 T01061015  RH  043%=      5-min Rain = 0
KAM1 220640Z 20014G19KT 11/M02 A2959 RMK A01 T01061015  RH  043%=      5-min Rain = 0
KAM1 220641Z 21015KT 10/M02 A2959 RMK A01 T01041016  RH  043%=      5-min Rain = 0
KAM1 220642Z 21015KT 10/M02 A2959 RMK A01 T01041015  RH  043%=      5-min Rain = 0
KAM1 220643Z 20018KT 10/M02 A2959 RMK A01 T01041015  RH  044%=      5-min Rain = 0
KAM1 220644Z 21018KT 10/M02 A2959 RMK A01 T01041015  RH  044%=      5-min Rain = 0
KAM1 220645Z 21016KT 10/M02 A2959 RMK A01 T01041015  RH  044%=      5-min Rain = 0
KAM1 220646Z 21018KT 10/M01 A2959 RMK A01 T01041014  RH  044%=      5-min Rain = 0
KAM1 220647Z 21019KT 10/M01 A2959 RMK A01 T01031014  RH  044%=      5-min Rain = 0
KAM1 220648Z 21017KT 10/M01 A2959 RMK A01 T01041014  RH  044%=      5-min Rain = 0
KAM1 220649Z 21017KT 10/M01 A2959 RMK A01 T01031014  RH  044%=      5-min Rain = 0
KAM1 220650Z 21019G24KT 10/M01 A2959 RMK A01 T01031014  RH  044%=      5-min Rain = 0
KAM1 220651Z 21019KT 10/M01 A2959 RMK A01 T01031014  RH  044%=      5-min Rain = 0
KAM1 220652Z 21017G22KT 10/M01 A2959 RMK A01 T01031013  RH  044%=      5-min Rain = 0
KAM1 220653Z 21018KT 10/M01 A2959 RMK A01 T01031014  RH  044%=      5-min Rain = 0
KAM1 220654Z 21018G23KT 10/M01 A2959 RMK A01 T01031013  RH  044%=      5-min Rain = 0
KAM1 220655Z 21018G23KT 10/M01 A2959 RMK A01 T01031013  RH  044%=      5-min Rain = 0
KAM1 220656Z 21017G23KT 10/M01 A2959 RMK A01 T01031013  RH  044%=      5-min Rain = 0
KAM1 220657Z 21019KT 10/M01 A2959 RMK A01 T01031013  RH  044%=      5-min Rain = 0
KAM1 220658Z 21020G27KT 10/M01 A2959 RMK A01 T01031013  RH  045%=      5-min Rain = 0
KAM1 220659Z 21020G26KT 10/M01 A2959 RMK A01 T01041012  RH  044%=      5-min Rain = 0
KAM1 220700Z 21018KT 10/M01 A2959 RMK A01 T01041012  RH  044%=      5-min Rain = 0
KAM1 220701Z 21018KT 10/M01 A2959 RMK A01 T01041012  RH  044%=      5-min Rain = 0
KAM1 220702Z 21019KT 10/M01 A2959 RMK A01 T01031013  RH  045%=      5-min Rain = 0
KAM1 220703Z 21018KT 10/M01 A2959 RMK A01 T01021012  RH  045%=      5-min Rain = 0
KAM1 220704Z 21017KT 10/M01 A2959 RMK A01 T01021012  RH  045%=      5-min Rain = 0
KAM1 220705Z 21019G25KT 10/M01 A2959 RMK A01 T01021012  RH  045%=      5-min Rain = 0
KAM1 220706Z 21018KT 10/M01 A2959 RMK A01 T01011012  RH  045%=      5-min Rain = 0
KAM1 220707Z 21017KT 10/M01 A2959 RMK A01 T01011012  RH  045%=      5-min Rain = 0
KAM1 220708Z 21016KT 10/M01 A2959 RMK A01 T01001012  RH  045%=      5-min Rain = 0
KAM1 220709Z 21017G25KT 10/M01 A2959 RMK A01 T00991012  RH  046%=      5-min Rain = 0
KAM1 220710Z 21017G24KT 10/M01 A2959 RMK A01 T00991012  RH  046%=      5-min Rain = 0
KAM1 220711Z 25017KT 10/M01 A2961 RMK A01 T00991012  RH  046%=      5-min Rain = 0
KAM1 220712Z 28022KT 10/M01 A2964 RMK A01 T00981012  RH  046%=      5-min Rain = 0
KAM1 220713Z 28019KT 10/M01 A2964 RMK A01 T00961013  RH  046%=      5-min Rain = 0
KAM1 220714Z 27015G22KT 10/M02 A2964 RMK A01 T00971017  RH  045%=      5-min Rain = 0
KAM1 220715Z 24015KT 10/M02 A2962 RMK A01 T00981019  RH  044%=      5-min Rain = 0
KAM1 220716Z 28019G24KT 10/M02 A2965 RMK A01 T00991020  RH  043%=      5-min Rain = 0
KAM1 220717Z 28019KT 10/M02 A2965 RMK A01 T01001021  RH  043%=      5-min Rain = 0
KAM1 220718Z 27015KT 10/M02 A2965 RMK A01 T01001022  RH  042%=      5-min Rain = 0
KAM1 220719Z 25012KT 10/M03 A2964 RMK A01 T01001025  RH  041%=      5-min Rain = 0
KAM1 220720Z 23013KT 10/M03 A2963 RMK A01 T01011026  RH  041%=      5-min Rain = 0
KAM1 220721Z 22016KT 10/M03 A2962 RMK A01 T01021026  RH  041%=      5-min Rain = 0
KAM1 220722Z 22016G22KT 10/M03 A2962 RMK A01 T01021026  RH  041%=      5-min Rain = 0
KAM1 220723Z 23017KT 10/M03 A2962 RMK A01 T01031025  RH  041%=      5-min Rain = 0
KAM1 220724Z 24017KT 10/M02 A2963 RMK A01 T01041024  RH  040%=      5-min Rain = 0
KAM1 220725Z 24015KT 11/M02 A2963 RMK A01 T01061024  RH  040%=      5-min Rain = 0
KAM1 220726Z 23013KT 11/M03 A2963 RMK A01 T01061025  RH  040%=      5-min Rain = 0
KAM1 220727Z 24013G19KT 11/M03 A2964 RMK A01 T01051025  RH  040%=      5-min Rain = 0
KAM1 220728Z 24014KT 10/M03 A2964 RMK A01 T01031026  RH  040%=      5-min Rain = 0
KAM1 220729Z 24013KT 10/M03 A2964 RMK A01 T01021026  RH  040%=      5-min Rain = 0
KAM1 220730Z 24015KT 10/M03 A2964 RMK A01 T01011026  RH  041%=      5-min Rain = 0
KAM1 220731Z 23013KT 10/M03 A2964 RMK A01 T01011026  RH  041%=      5-min Rain = 0
KAM1 220732Z 23012KT 10/M03 A2964 RMK A01 T01001026  RH  041%=      5-min Rain = 0
KAM1 220733Z 23014KT 10/M03 A2964 RMK A01 T00991027  RH  041%=      5-min Rain = 0
KAM1 220734Z 23013KT 10/M03 A2964 RMK A01 T00991026  RH  041%=      5-min Rain = 0
KAM1 220735Z 23013KT 10/M03 A2964 RMK A01 T00991026  RH  041%=      5-min Rain = 0
KAM1 220736Z 23014KT 10/M03 A2964 RMK A01 T00991026  RH  041%=      5-min Rain = 0
KAM1 220737Z 23014KT 10/M03 A2964 RMK A01 T00991027  RH  041%=      5-min Rain = 0
KAM1 220738Z 23014KT 10/M03 A2964 RMK A01 T01001027  RH  041%=      5-min Rain = 0
KAM1 220739Z 23011KT 10/M03 A2964 RMK A01 T01001027  RH  041%=      5-min Rain = 0
KAM1 220740Z 23013KT 10/M03 A2964 RMK A01 T00981028  RH  041%=      5-min Rain = 0
KAM1 220741Z 23013KT 10/M03 A2964 RMK A01 T00981028  RH  041%=      5-min Rain = 0
KAM1 220742Z 23012KT 10/M03 A2964 RMK A01 T00971028  RH  041%=      5-min Rain = 0
KAM1 220743Z 23013KT 10/M03 A2964 RMK A01 T00971028  RH  041%=      5-min Rain = 0
KAM1 220744Z 23011KT 10/M03 A2964 RMK A01 T00961028  RH  041%=      5-min Rain = 0
KAM1 220745Z 23012KT 10/M03 A2964 RMK A01 T00951029  RH  042%=      5-min Rain = 0
KAM1 220746Z 23011KT 10/M03 A2964 RMK A01 T00951029  RH  042%=      5-min Rain = 0
KAM1 220747Z 23012KT 09/M03 A2964 RMK A01 T00941029  RH  042%=      5-min Rain = 0
KAM1 220748Z 23011KT 09/M03 A2964 RMK A01 T00931029  RH  042%=      5-min Rain = 0
KAM1 220749Z 24011KT 09/M03 A2964 RMK A01 T00931029  RH  042%=      5-min Rain = 0
KAM1 220750Z 24012KT 09/M03 A2964 RMK A01 T00921029  RH  042%=      5-min Rain = 0
KAM1 220751Z 24011KT 09/M03 A2964 RMK A01 T00921029  RH  042%=      5-min Rain = 0
KAM1 220752Z 24011KT 09/M03 A2964 RMK A01 T00921029  RH  042%=      5-min Rain = 0
KAM1 220753Z 24010KT 09/M03 A2964 RMK A01 T00911030  RH  043%=      5-min Rain = 0
KAM1 220754Z 24010KT 09/M03 A2964 RMK A01 T00891030  RH  043%=      5-min Rain = 0
KAM1 220755Z 24010KT 09/M03 A2964 RMK A01 T00881030  RH  043%=      5-min Rain = 0
KAM1 220756Z 23010KT 09/M03 A2964 RMK A01 T00871031  RH  043%=      5-min Rain = 0
KAM1 220757Z 23009KT 09/M03 A2964 RMK A01 T00851031  RH  044%=      5-min Rain = 0
KAM1 220758Z 23009KT 08/M03 A2964 RMK A01 T00831032  RH  044%=      5-min Rain = 0
KAM1 220759Z 24010KT 08/M03 A2964 RMK A01 T00821031  RH  045%=      5-min Rain = 0
KAM1 220800Z 23009KT 08/M03 A2964 RMK A01 T00811031  RH  045%=      5-min Rain = 0
KAM1 220801Z 23009KT 08/M03 A2964 RMK A01 T00811031  RH  045%=      5-min Rain = 0
KAM1 220802Z 24009KT 08/M03 A2964 RMK A01 T00811031  RH  045%=      5-min Rain = 0
KAM1 220803Z 24010KT 08/M03 A2964 RMK A01 T00811031  RH  045%=      5-min Rain = 0
KAM1 220804Z 24009KT 08/M03 A2964 RMK A01 T00811031  RH  045%=      5-min Rain = 0
KAM1 220805Z 24009KT 08/M03 A2964 RMK A01 T00801031  RH  045%=      5-min Rain = 0
KAM1 220806Z 24008KT 08/M03 A2964 RMK A01 T00791032  RH  045%=      5-min Rain = 0
KAM1 220807Z 24009KT 08/M03 A2964 RMK A01 T00781032  RH  046%=      5-min Rain = 0
KAM1 220808Z 24009KT 08/M03 A2964 RMK A01 T00761032  RH  046%=      5-min Rain = 0
KAM1 220809Z 24009KT 08/M03 A2964 RMK A01 T00751033  RH  046%=      5-min Rain = 0
KAM1 220810Z 24009KT 07/M03 A2964 RMK A01 T00741034  RH  046%=      5-min Rain = 0
KAM1 220811Z 24009KT 07/M03 A2964 RMK A01 T00721034  RH  047%=      5-min Rain = 0
KAM1 220812Z 24009KT 07/M03 A2964 RMK A01 T00711034  RH  047%=      5-min Rain = 0
KAM1 220813Z 24008KT 07/M04 A2964 RMK A01 T00701035  RH  047%=      5-min Rain = 0
KAM1 220814Z 23008KT 07/M04 A2964 RMK A01 T00681035  RH  048%=      5-min Rain = 0
KAM1 220815Z 23008KT 07/M04 A2964 RMK A01 T00671036  RH  048%=      5-min Rain = 0
KAM1 220816Z 23008KT 07/M04 A2964 RMK A01 T00661036  RH  048%=      5-min Rain = 0
KAM1 220817Z 22008KT 07/M04 A2964 RMK A01 T00661036  RH  048%=      5-min Rain = 0
KAM1 220818Z 22008KT 07/M04 A2964 RMK A01 T00651036  RH  048%=      5-min Rain = 0
KAM1 220819Z 21008KT 07/M04 A2964 RMK A01 T00651036  RH  048%=      5-min Rain = 0
KAM1 220820Z 21008KT 07/M04 A2964 RMK A01 T00651036  RH  048%=      5-min Rain = 0
KAM1 220821Z 21009KT 06/M04 A2964 RMK A01 T00641036  RH  048%=      5-min Rain = 0
KAM1 220822Z 21008KT 06/M04 A2964 RMK A01 T00641037  RH  048%=      5-min Rain = 0
KAM1 220823Z 21008KT 06/M04 A2964 RMK A01 T00641037  RH  048%=      5-min Rain = 0
KAM1 220824Z 21007KT 06/M04 A2964 RMK A01 T00631037  RH  049%=      5-min Rain = 0
KAM1 220825Z 21007KT 06/M04 A2964 RMK A01 T00621038  RH  049%=      5-min Rain = 0
KAM1 220826Z 21006KT 06/M04 A2964 RMK A01 T00611038  RH  049%=      5-min Rain = 0
KAM1 220827Z 21006KT 06/M04 A2964 RMK A01 T00611039  RH  049%=      5-min Rain = 0
KAM1 220828Z 22006KT 06/M04 A2964 RMK A01 T00601038  RH  049%=      5-min Rain = 0
KAM1 220829Z 22005KT 06/M04 A2964 RMK A01 T00591039  RH  049%=      5-min Rain = 0
KAM1 220830Z 22006KT 06/M04 A2964 RMK A01 T00591039  RH  050%=      5-min Rain = 0
KAM1 220831Z 23006KT 06/M04 A2964 RMK A01 T00581039  RH  050%=      5-min Rain = 0
KAM1 220832Z 23006KT 06/M04 A2964 RMK A01 T00581039  RH  050%=      5-min Rain = 0
KAM1 220833Z 23007KT 06/M04 A2964 RMK A01 T00571039  RH  050%=      5-min Rain = 0
KAM1 220834Z 22007KT 06/M04 A2964 RMK A01 T00561039  RH  050%=      5-min Rain = 0
KAM1 220835Z 22007KT 06/M04 A2964 RMK A01 T00551040  RH  050%=      5-min Rain = 0
KAM1 220836Z 22008KT 05/M04 A2964 RMK A01 T00531041  RH  051%=      5-min Rain = 0
KAM1 220837Z 22009KT 05/M04 A2964 RMK A01 T00511042  RH  051%=      5-min Rain = 0
KAM1 220838Z 22009KT 05/M04 A2964 RMK A01 T00491042  RH  052%=      5-min Rain = 0
KAM1 220839Z 23009KT 05/M04 A2964 RMK A01 T00491041  RH  052%=      5-min Rain = 0
KAM1 220840Z 23009KT 05/M04 A2965 RMK A01 T00491041  RH  052%=      5-min Rain = 0
KAM1 220841Z 23009KT 05/M04 A2965 RMK A01 T00491040  RH  052%=      5-min Rain = 0
KAM1 220842Z 23008KT 05/M04 A2965 RMK A01 T00491040  RH  052%=      5-min Rain = 0
KAM1 220843Z 23008KT 05/M04 A2965 RMK A01 T00511039  RH  052%=      5-min Rain = 0
KAM1 220844Z 24008KT 05/M04 A2965 RMK A01 T00511040  RH  052%=      5-min Rain = 0
KAM1 220845Z 24008KT 05/M04 A2965 RMK A01 T00511040  RH  052%=      5-min Rain = 0
KAM1 220846Z 24008KT 05/M04 A2965 RMK A01 T00521040  RH  052%=      5-min Rain = 0
KAM1 220847Z 24007KT 05/M04 A2965 RMK A01 T00521040  RH  051%=      5-min Rain = 0
KAM1 220848Z 23008KT 05/M04 A2965 RMK A01 T00521040  RH  051%=      5-min Rain = 0
KAM1 220849Z 24009KT 05/M04 A2965 RMK A01 T00521041  RH  051%=      5-min Rain = 0
KAM1 220850Z 24008KT 05/M04 A2965 RMK A01 T00521041  RH  051%=      5-min Rain = 0
KAM1 220851Z 24008KT 05/M04 A2965 RMK A01 T00521041  RH  051%=      5-min Rain = 0
KAM1 220852Z 24008KT 05/M04 A2965 RMK A01 T00521042  RH  051%=      5-min Rain = 0
KAM1 220853Z 24008KT 05/M04 A2965 RMK A01 T00501042  RH  051%=      5-min Rain = 0
KAM1 220854Z 24008KT 05/M04 A2965 RMK A01 T00491043  RH  051%=      5-min Rain = 0
KAM1 220855Z 24008KT 05/M04 A2965 RMK A01 T00481043  RH  051%=      5-min Rain = 0
KAM1 220856Z 24007KT 05/M04 A2965 RMK A01 T00471044  RH  052%=      5-min Rain = 0
KAM1 220857Z 24008KT 05/M04 A2965 RMK A01 T00461044  RH  052%=      5-min Rain = 0
KAM1 220858Z 25008KT 04/M05 A2965 RMK A01 T00441045  RH  052%=      5-min Rain = 0
KAM1 220859Z 25007KT 04/M04 A2965 RMK A01 T00441044  RH  053%=      5-min Rain = 0
KAM1 220900Z 25006KT 04/M05 A2965 RMK A01 T00431045  RH  053%=      5-min Rain = 0
KAM1 220901Z 25007KT 04/M05 A2965 RMK A01 T00421045  RH  053%=      5-min Rain = 0
KAM1 220902Z 25007KT 04/M05 A2965 RMK A01 T00411045  RH  054%=      5-min Rain = 0
KAM1 220903Z 26006KT 04/M05 A2965 RMK A01 T00391046  RH  054%=      5-min Rain = 0
KAM1 220904Z 26006KT 04/M05 A2965 RMK A01 T00371046  RH  055%=      5-min Rain = 0
KAM1 220905Z 26006KT 04/M05 A2965 RMK A01 T00351047  RH  055%=      5-min Rain = 0
KAM1 220906Z 27006KT 03/M05 A2965 RMK A01 T00331047  RH  056%=      5-min Rain = 0
KAM1 220907Z 26006KT 03/M05 A2965 RMK A01 T00311048  RH  056%=      5-min Rain = 0
KAM1 220908Z 26007KT 03/M05 A2965 RMK A01 T00301049  RH  056%=      5-min Rain = 0
KAM1 220909Z 26007KT 03/M05 A2965 RMK A01 T00281049  RH  057%=      5-min Rain = 0
KAM1 220910Z 26007KT 03/M05 A2965 RMK A01 T00271050  RH  057%=      5-min Rain = 0
KAM1 220911Z 26007KT 03/M05 A2965 RMK A01 T00261051  RH  057%=      5-min Rain = 0
KAM1 220912Z 26007KT 02/M05 A2965 RMK A01 T00241051  RH  057%=      5-min Rain = 0
KAM1 220913Z 26007KT 02/M05 A2965 RMK A01 T00231052  RH  058%=      5-min Rain = 0
KAM1 220914Z 26007KT 02/M05 A2965 RMK A01 T00211052  RH  058%=      5-min Rain = 0
KAM1 220915Z 26007KT 02/M05 A2965 RMK A01 T00201052  RH  059%=      5-min Rain = 0
KAM1 220916Z 25008KT 02/M05 A2965 RMK A01 T00201052  RH  059%=      5-min Rain = 0
KAM1 220917Z 24008KT 02/M05 A2965 RMK A01 T00201052  RH  059%=      5-min Rain = 0
KAM1 220918Z 25008KT 02/M05 A2965 RMK A01 T00181054  RH  059%=      5-min Rain = 0
KAM1 220919Z 25008KT 01/M06 A2965 RMK A01 T00141057  RH  059%=      5-min Rain = 0
KAM1 220920Z 26007KT 01/M06 A2966 RMK A01 T00121057  RH  060%=      5-min Rain = 0
KAM1 220921Z 26006KT 01/M06 A2966 RMK A01 T00121056  RH  061%=      5-min Rain = 0
KAM1 220922Z 26006KT 01/M05 A2966 RMK A01 T00121054  RH  061%=      5-min Rain = 0
KAM1 220923Z 26004KT 01/M05 A2966 RMK A01 T00121054  RH  061%=      5-min Rain = 0
KAM1 220924Z 27003KT 01/M05 A2966 RMK A01 T00121054  RH  062%=      5-min Rain = 0
KAM1 220925Z 27004KT 01/M05 A2966 RMK A01 T00121053  RH  062%=      5-min Rain = 0
KAM1 220926Z 26005KT 01/M05 A2966 RMK A01 T00121052  RH  062%=      5-min Rain = 0
KAM1 220927Z 26006KT 01/M05 A2966 RMK A01 T00141049  RH  063%=      5-min Rain = 0
KAM1 220928Z 25006KT 02/M05 A2966 RMK A01 T00161048  RH  062%=      5-min Rain = 0
KAM1 220929Z 25006KT 02/M05 A2966 RMK A01 T00191047  RH  061%=      5-min Rain = 0
KAM1 220930Z 25007KT 02/M05 A2966 RMK A01 T00201049  RH  060%=      5-min Rain = 0
KAM1 220931Z 25006KT 02/M05 A2966 RMK A01 T00181052  RH  060%=      5-min Rain = 0
KAM1 220932Z 25006KT 02/M05 A2966 RMK A01 T00171052  RH  060%=      5-min Rain = 0
KAM1 220933Z 25006KT 02/M05 A2966 RMK A01 T00171050  RH  061%=      5-min Rain = 0
KAM1 220934Z 25006KT 02/M05 A2966 RMK A01 T00171050  RH  061%=      5-min Rain = 0
KAM1 220935Z 25006KT 02/M05 A2966 RMK A01 T00171050  RH  061%=      5-min Rain = 0
KAM1 220936Z 24007KT 02/M05 A2966 RMK A01 T00161051  RH  061%=      5-min Rain = 0
KAM1 220937Z 25007KT 02/M05 A2966 RMK A01 T00151053  RH  061%=      5-min Rain = 0
KAM1 220938Z 25007KT 01/M05 A2966 RMK A01 T00131054  RH  061%=      5-min Rain = 0
KAM1 220939Z 25007KT 01/M06 A2966 RMK A01 T00121055  RH  061%=      5-min Rain = 0
KAM1 220940Z 25007KT 01/M06 A2966 RMK A01 T00101056  RH  061%=      5-min Rain = 0
KAM1 220941Z 25007KT 01/M06 A2966 RMK A01 T00091057  RH  061%=      5-min Rain = 0
KAM1 220942Z 25008KT 01/M06 A2966 RMK A01 T00081057  RH  062%=      5-min Rain = 0
KAM1 220943Z 25008KT 01/M06 A2966 RMK A01 T00071058  RH  062%=      5-min Rain = 0
KAM1 220944Z 25008KT 01/M06 A2966 RMK A01 T00061058  RH  062%=      5-min Rain = 0
KAM1 220945Z 25008KT 01/M06 A2966 RMK A01 T00051058  RH  063%=      5-min Rain = 0
KAM1 220946Z 25008KT 01/M06 A2966 RMK A01 T00051057  RH  063%=      5-min Rain = 0
KAM1 220947Z 25009KT 01/M05 A2966 RMK A01 T00061054  RH  064%=      5-min Rain = 0
KAM1 220948Z 25008KT 01/M05 A2966 RMK A01 T00071052  RH  064%=      5-min Rain = 0
KAM1 220949Z 25008KT 01/M05 A2966 RMK A01 T00081052  RH  064%=      5-min Rain = 0
KAM1 220950Z 25009KT 01/M05 A2966 RMK A01 T00091052  RH  064%=      5-min Rain = 0
KAM1 220951Z 26009KT 01/M05 A2966 RMK A01 T00091051  RH  064%=      5-min Rain = 0
KAM1 220952Z 25009KT 01/M05 A2966 RMK A01 T00101050  RH  064%=      5-min Rain = 0
KAM1 220953Z 25009KT 01/M05 A2966 RMK A01 T00111049  RH  064%=      5-min Rain = 0
KAM1 220954Z 26008KT 01/M05 A2966 RMK A01 T00121048  RH  064%=      5-min Rain = 0
KAM1 220955Z 26008KT 01/M05 A2966 RMK A01 T00121048  RH  064%=      5-min Rain = 0
KAM1 220956Z 26008KT 01/M05 A2966 RMK A01 T00131048  RH  064%=      5-min Rain = 0
KAM1 220957Z 26008KT 01/M05 A2966 RMK A01 T00131048  RH  064%=      5-min Rain = 0
KAM1 220958Z 26008KT 01/M05 A2966 RMK A01 T00131048  RH  064%=      5-min Rain = 0
KAM1 220959Z 26008KT 01/M05 A2966 RMK A01 T00121048  RH  064%=      5-min Rain = 0
KAM1 221000Z 26008KT 01/M05 A2966 RMK A01 T00111049  RH  064%=      5-min Rain = 0
KAM1 221001Z 26008KT 01/M05 A2966 RMK A01 T00101050  RH  064%=      5-min Rain = 0
KAM1 221002Z 26008KT 01/M05 A2966 RMK A01 T00091050  RH  065%=      5-min Rain = 0
KAM1 221003Z 26008KT 01/M05 A2966 RMK A01 T00081050  RH  065%=      5-min Rain = 0
KAM1 221004Z 26008KT 01/M05 A2966 RMK A01 T00061051  RH  065%=      5-min Rain = 0
KAM1 221005Z 26009KT 01/M05 A2966 RMK A01 T00051051  RH  066%=      5-min Rain = 0
KAM1 221006Z 26009KT 01/M05 A2967 RMK A01 T00051051  RH  066%=      5-min Rain = 0
KAM1 221007Z 26008KT 00/M05 A2966 RMK A01 T00041051  RH  067%=      5-min Rain = 0
KAM1 221008Z 26008KT 00/M05 A2966 RMK A01 T00031050  RH  067%=      5-min Rain = 0
KAM1 221009Z 26008KT 00/M05 A2966 RMK A01 T00031050  RH  067%=      5-min Rain = 0
KAM1 221010Z 26007KT 00/M05 A2967 RMK A01 T00031050  RH  068%=      5-min Rain = 0
KAM1 221011Z 26007KT 00/M05 A2967 RMK A01 T00021051  RH  068%=      5-min Rain = 0
KAM1 221012Z 26007KT 00/05 A2967 RMK A01 T00000-52  RH  068%=      5-min Rain = 0
KAM1 221013Z 26007KT M00/M05 A2967 RMK A01 T10011053  RH  068%=      5-min Rain = 0
KAM1 221014Z 26007KT M00/M05 A2967 RMK A01 T10031054  RH  069%=      5-min Rain = 0
KAM1 221015Z 26007KT M00/M05 A2967 RMK A01 T10041054  RH  069%=      5-min Rain = 0
KAM1 221016Z 26007KT M01/M05 A2967 RMK A01 T10051054  RH  069%=      5-min Rain = 0
KAM1 221017Z 26007KT M01/M05 A2967 RMK A01 T10051053  RH  070%=      5-min Rain = 0
KAM1 221018Z 27007KT M01/M05 A2967 RMK A01 T10051052  RH  071%=      5-min Rain = 0
KAM1 221019Z 27006KT M01/M05 A2967 RMK A01 T10051051  RH  071%=      5-min Rain = 0
KAM1 221020Z 27006KT M00/M05 A2967 RMK A01 T10041049  RH  071%=      5-min Rain = 0
KAM1 221021Z 27006KT M00/M05 A2967 RMK A01 T10031049  RH  071%=      5-min Rain = 0
KAM1 221022Z 27006KT M00/M05 A2967 RMK A01 T10031049  RH  071%=      5-min Rain = 0
KAM1 221023Z 27006KT M00/M05 A2967 RMK A01 T10031049  RH  071%=      5-min Rain = 0
KAM1 221024Z 27006KT M00/M05 A2967 RMK A01 T10031048  RH  072%=      5-min Rain = 0
KAM1 221025Z 27006KT M00/M05 A2967 RMK A01 T10031048  RH  072%=      5-min Rain = 0
KAM1 221026Z 27006KT M00/M05 A2967 RMK A01 T10021047  RH  072%=      5-min Rain = 0
KAM1 221027Z 27006KT M00/M05 A2968 RMK A01 T10021047  RH  072%=      5-min Rain = 0
KAM1 221028Z 27006KT M00/M05 A2968 RMK A01 T10011046  RH  072%=      5-min Rain = 0
KAM1 221029Z 28006KT 00/M05 A2968 RMK A01 T00011045  RH  072%=      5-min Rain = 0
KAM1 221030Z 29005KT 00/M04 A2968 RMK A01 T00021043  RH  072%=      5-min Rain = 0
KAM1 221031Z 30004KT 00/M04 A2968 RMK A01 T00031041  RH  072%=      5-min Rain = 0
KAM1 221032Z 31004KT 01/M04 A2968 RMK A01 T00051039  RH  072%=      5-min Rain = 0
KAM1 221033Z 30005KT 01/M04 A2968 RMK A01 T00081038  RH  071%=      5-min Rain = 0
KAM1 221034Z 29006KT 01/M04 A2968 RMK A01 T00091038  RH  071%=      5-min Rain = 0
KAM1 221035Z 29005KT 01/M04 A2968 RMK A01 T00111038  RH  070%=      5-min Rain = 0
KAM1 221036Z 29005KT 01/M04 A2968 RMK A01 T00121038  RH  069%=      5-min Rain = 0
KAM1 221037Z 29005KT 01/M04 A2968 RMK A01 T00131038  RH  069%=      5-min Rain = 0
KAM1 221038Z 28004KT 01/M04 A2968 RMK A01 T00141037  RH  069%=      5-min Rain = 0
KAM1 221039Z 28004KT 02/M04 A2968 RMK A01 T00161037  RH  068%=      5-min Rain = 0
KAM1 221040Z 29004KT 02/M04 A2968 RMK A01 T00161038  RH  067%=      5-min Rain = 0
KAM1 221041Z 30003KT 02/M04 A2968 RMK A01 T00161039  RH  067%=      5-min Rain = 0
KAM1 221042Z 29003KT 02/M04 A2968 RMK A01 T00151040  RH  067%=      5-min Rain = 0
KAM1 221043Z 28003KT 01/M04 A2968 RMK A01 T00131042  RH  067%=      5-min Rain = 0
KAM1 221044Z 28003KT 01/M04 A2968 RMK A01 T00111042  RH  068%=      5-min Rain = 0
KAM1 221045Z 28003KT 01/M04 A2968 RMK A01 T00111040  RH  069%=      5-min Rain = 0
KAM1 221046Z 27003KT 01/M04 A2968 RMK A01 T00101041  RH  069%=      5-min Rain = 0
KAM1 221047Z 27003KT 01/M04 A2968 RMK A01 T00101040  RH  069%=      5-min Rain = 0
KAM1 221048Z 27003KT 01/M04 A2968 RMK A01 T00091041  RH  069%=      5-min Rain = 0
KAM1 221049Z 28003KT 01/M04 A2968 RMK A01 T00081043  RH  069%=      5-min Rain = 0
KAM1 221050Z 27003KT 01/M05 A2968 RMK A01 T00051046  RH  069%=      5-min Rain = 0
KAM1 221051Z 27003KT 00/M05 A2968 RMK A01 T00031045  RH  070%=      5-min Rain = 0
KAM1 221052Z 27003KT 00/M04 A2968 RMK A01 T00031043  RH  071%=      5-min Rain = 0
KAM1 221053Z 26003KT 01/M04 A2968 RMK A01 T00061039  RH  072%=      5-min Rain = 0
KAM1 221054Z 26003KT 01/M04 A2968 RMK A01 T00091037  RH  071%=      5-min Rain = 0
KAM1 221055Z 26003KT 01/M04 A2968 RMK A01 T00111038  RH  070%=      5-min Rain = 0
KAM1 221056Z 26003KT 01/M04 A2968 RMK A01 T00111040  RH  069%=      5-min Rain = 0
KAM1 221057Z 27003KT 01/M04 A2968 RMK A01 T00091041  RH  069%=      5-min Rain = 0
KAM1 221058Z 27003KT 01/M04 A2968 RMK A01 T00091041  RH  070%=      5-min Rain = 0
KAM1 221059Z 27003KT 01/M04 A2968 RMK A01 T00091041  RH  070%=      5-min Rain = 0
KAM1 221100Z 28003KT 01/M04 A2968 RMK A01 T00091039  RH  070%=      5-min Rain = 0
KAM1 221101Z 27003KT 01/M04 A2968 RMK A01 T00111037  RH  070%=      5-min Rain = 0
KAM1 221102Z 28002KT 01/M04 A2968 RMK A01 T00121038  RH  069%=      5-min Rain = 0
KAM1 221103Z 28003KT 01/M04 A2968 RMK A01 T00121038  RH  069%=      5-min Rain = 0
KAM1 221104Z 28003KT 01/M04 A2968 RMK A01 T00131038  RH  069%=      5-min Rain = 0
KAM1 221105Z 27002KT 01/M04 A2968 RMK A01 T00141038  RH  069%=      5-min Rain = 0
KAM1 221106Z 27003KT 01/M04 A2968 RMK A01 T00141038  RH  068%=      5-min Rain = 0
KAM1 221107Z 27003KT 01/M04 A2968 RMK A01 T00141039  RH  068%=      5-min Rain = 0
KAM1 221108Z 26003KT 01/M04 A2969 RMK A01 T00121041  RH  068%=      5-min Rain = 0
KAM1 221109Z 27003KT 01/M04 A2969 RMK A01 T00091044  RH  068%=      5-min Rain = 0
KAM1 221110Z 26003KT 01/M05 A2969 RMK A01 T00061047  RH  068%=      5-min Rain = 0
KAM1 221111Z 27003KT 00/M05 A2969 RMK A01 T00021049  RH  069%=      5-min Rain = 0
KAM1 221112Z 27003KT 00/05 A2969 RMK A01 T00-00-49  RH  070%=      5-min Rain = 0
KAM1 221113Z 26003KT M00/M05 A2969 RMK A01 T10011048  RH  071%=      5-min Rain = 0
KAM1 221114Z 26003KT M00/M05 A2969 RMK A01 T10011047  RH  072%=      5-min Rain = 0
KAM1 221115Z 26003KT M00/M05 A2969 RMK A01 T10021047  RH  072%=      5-min Rain = 0
KAM1 221116Z 26003KT M00/M05 A2969 RMK A01 T10031047  RH  072%=      5-min Rain = 0
KAM1 221117Z 26003KT M00/M05 A2969 RMK A01 T10031046  RH  072%=      5-min Rain = 0
KAM1 221118Z 25003KT M00/M05 A2969 RMK A01 T10041047  RH  072%=      5-min Rain = 0
KAM1 221119Z 25003KT M00/M05 A2969 RMK A01 T10041047  RH  073%=      5-min Rain = 0
KAM1 221120Z 25003KT M00/M05 A2969 RMK A01 T10041046  RH  073%=      5-min Rain = 0
KAM1 221121Z 25004KT M00/M05 A2969 RMK A01 T10031046  RH  073%=      5-min Rain = 0
KAM1 221122Z 25004KT M00/M05 A2969 RMK A01 T10031046  RH  073%=      5-min Rain = 0
KAM1 221123Z 25004KT M00/M05 A2969 RMK A01 T10041047  RH  073%=      5-min Rain = 0
KAM1 221124Z 25004KT M00/M05 A2969 RMK A01 T10041046  RH  073%=      5-min Rain = 0
KAM1 221125Z 25005KT M00/M05 A2969 RMK A01 T10031045  RH  073%=      5-min Rain = 0
KAM1 221126Z 25005KT M00/M05 A2969 RMK A01 T10021046  RH  072%=      5-min Rain = 0
KAM1 221127Z 25005KT M00/M05 A2969 RMK A01 T10041048  RH  072%=      5-min Rain = 0
KAM1 221128Z 25006KT M00/M05 A2969 RMK A01 T10041047  RH  073%=      5-min Rain = 0
KAM1 221129Z 25006KT M00/M05 A2969 RMK A01 T10041046  RH  073%=      5-min Rain = 0
KAM1 221130Z 25006KT M00/M05 A2969 RMK A01 T10041045  RH  074%=      5-min Rain = 0
KAM1 221131Z 26006KT M00/M05 A2969 RMK A01 T10041045  RH  074%=      5-min Rain = 0
KAM1 221132Z 25006KT M00/M05 A2969 RMK A01 T10041045  RH  074%=      5-min Rain = 0
KAM1 221133Z 25007KT M00/M04 A2969 RMK A01 T10031044  RH  074%=      5-min Rain = 0
KAM1 221134Z 26007KT M00/M04 A2969 RMK A01 T10031044  RH  074%=      5-min Rain = 0
KAM1 221135Z 26006KT M00/M04 A2969 RMK A01 T10031044  RH  074%=      5-min Rain = 0
KAM1 221136Z 26006KT M00/M04 A2969 RMK A01 T10031044  RH  074%=      5-min Rain = 0
KAM1 221137Z 26007KT M00/M04 A2969 RMK A01 T10031044  RH  074%=      5-min Rain = 0
KAM1 221138Z 26007KT M00/M05 A2969 RMK A01 T10031045  RH  073%=      5-min Rain = 0
KAM1 221139Z 26007KT M00/M05 A2969 RMK A01 T10031045  RH  073%=      5-min Rain = 0
KAM1 221140Z 26006KT M01/M05 A2969 RMK A01 T10051047  RH  074%=      5-min Rain = 0
KAM1 221141Z 26006KT M01/M05 A2969 RMK A01 T10061047  RH  074%=      5-min Rain = 0
KAM1 221142Z 27006KT M01/M05 A2969 RMK A01 T10061046  RH  075%=      5-min Rain = 0
KAM1 221143Z 26006KT M01/M05 A2969 RMK A01 T10061045  RH  075%=      5-min Rain = 0
KAM1 221144Z 26006KT M01/M04 A2969 RMK A01 T10051044  RH  075%=      5-min Rain = 0
KAM1 221145Z 26006KT M00/M04 A2969 RMK A01 T10041044  RH  075%=      5-min Rain = 0
KAM1 221146Z 27005KT M00/M04 A2969 RMK A01 T10041044  RH  074%=      5-min Rain = 0
KAM1 221147Z 27005KT M00/M04 A2969 RMK A01 T10041044  RH  074%=      5-min Rain = 0
KAM1 221148Z 28005KT M00/M04 A2969 RMK A01 T10031043  RH  075%=      5-min Rain = 0
KAM1 221149Z 28004KT M00/M04 A2969 RMK A01 T10021042  RH  074%=      5-min Rain = 0
KAM1 221150Z 27004KT M00/M04 A2969 RMK A01 T10021043  RH  074%=      5-min Rain = 0
KAM1 221151Z 27003KT M00/M04 A2969 RMK A01 T10021044  RH  074%=      5-min Rain = 0
KAM1 221152Z 27004KT M00/M04 A2969 RMK A01 T10021043  RH  074%=      5-min Rain = 0
KAM1 221153Z 27003KT M00/M04 A2969 RMK A01 T10021042  RH  074%=      5-min Rain = 0
KAM1 221154Z 27004KT 00/04 A2969 RMK A01 T00000-40  RH  074%=      5-min Rain = 0
KAM1 221155Z 27005KT 00/M04 A2969 RMK A01 T00021040  RH  073%=      5-min Rain = 0
KAM1 221156Z 26005KT 00/M04 A2969 RMK A01 T00031041  RH  072%=      5-min Rain = 0
KAM1 221157Z 26006KT 00/M04 A2969 RMK A01 T00031041  RH  072%=      5-min Rain = 0
KAM1 221158Z 26006KT 00/M04 A2969 RMK A01 T00021042  RH  072%=      5-min Rain = 0
KAM1 221159Z 26006KT 00/M04 A2969 RMK A01 T00011044  RH  072%=      5-min Rain = 0
KAM1 221200Z 26006KT 00/04 A2969 RMK A01 T00-00-44  RH  072%=      5-min Rain = 0
KAM1 221201Z 26007KT M00/M05 A2969 RMK A01 T10011045  RH  072%=      5-min Rain = 0
KAM1 221202Z 25006KT M00/M05 A2969 RMK A01 T10041047  RH  072%=      5-min Rain = 0
KAM1 221203Z 26006KT M01/M05 A2969 RMK A01 T10061048  RH  073%=      5-min Rain = 0
KAM1 221204Z 26006KT M01/M05 A2969 RMK A01 T10071048  RH  074%=      5-min Rain = 0
KAM1 221205Z 26006KT M01/M05 A2969 RMK A01 T10081047  RH  075%=      5-min Rain = 0
KAM1 221206Z 26007KT M01/M05 A2969 RMK A01 T10081046  RH  075%=      5-min Rain = 0
KAM1 221207Z 26006KT M01/M05 A2969 RMK A01 T10071045  RH  075%=      5-min Rain = 0
KAM1 221208Z 26007KT M01/M05 A2969 RMK A01 T10081045  RH  076%=      5-min Rain = 0
KAM1 221209Z 26007KT M01/M05 A2969 RMK A01 T10081045  RH  076%=      5-min Rain = 0
KAM1 221210Z 27006KT M01/M04 A2969 RMK A01 T10071043  RH  076%=      5-min Rain = 0
KAM1 221211Z 27006KT M01/M04 A2969 RMK A01 T10061043  RH  076%=      5-min Rain = 0
KAM1 221212Z 26006KT M01/M04 A2969 RMK A01 T10051043  RH  076%=      5-min Rain = 0
KAM1 221213Z 26006KT M01/M04 A2969 RMK A01 T10051043  RH  076%=      5-min Rain = 0
KAM1 221214Z 26005KT M01/M04 A2969 RMK A01 T10051043  RH  076%=      5-min Rain = 0
KAM1 221215Z 26005KT M01/M04 A2969 RMK A01 T10061043  RH  076%=      5-min Rain = 0
KAM1 221216Z 27005KT M01/M04 A2969 RMK A01 T10061044  RH  076%=      5-min Rain = 0
KAM1 221217Z 28005KT M01/M04 A2969 RMK A01 T10061044  RH  076%=      5-min Rain = 0
KAM1 221218Z 28005KT M01/M04 A2969 RMK A01 T10071044  RH  076%=      5-min Rain = 0
KAM1 221219Z 28005KT M01/M05 A2969 RMK A01 T10071045  RH  076%=      5-min Rain = 0
KAM1 221220Z 28005KT M01/M05 A2969 RMK A01 T10081046  RH  076%=      5-min Rain = 0
KAM1 221221Z 27005KT M01/M05 A2969 RMK A01 T10081045  RH  076%=      5-min Rain = 0
KAM1 221222Z 26006KT M01/M05 A2969 RMK A01 T10081045  RH  076%=      5-min Rain = 0
KAM1 221223Z 27006KT M01/M05 A2969 RMK A01 T10091046  RH  076%=      5-min Rain = 0
KAM1 221224Z 27004KT M01/M05 A2969 RMK A01 T10091046  RH  076%=      5-min Rain = 0
KAM1 221225Z 28004KT M01/M05 A2969 RMK A01 T10091046  RH  076%=      5-min Rain = 0
KAM1 221226Z 27004KT M01/M05 A2969 RMK A01 T10091046  RH  076%=      5-min Rain = 0
KAM1 221227Z 26004KT M01/M05 A2969 RMK A01 T10091046  RH  076%=      5-min Rain = 0
KAM1 221228Z 26004KT M01/M04 A2969 RMK A01 T10071044  RH  076%=      5-min Rain = 0
KAM1 221229Z 27003KT M01/M05 A2969 RMK A01 T10061045  RH  075%=      5-min Rain = 0
KAM1 221230Z 27003KT M01/M05 A2969 RMK A01 T10071047  RH  074%=      5-min Rain = 0
KAM1 221231Z 28003KT M01/M05 A2969 RMK A01 T10091049  RH  074%=      5-min Rain = 0
KAM1 221232Z 29004KT M01/M05 A2969 RMK A01 T10101048  RH  075%=      5-min Rain = 0
KAM1 221233Z 29003KT M01/M05 A2969 RMK A01 T10101047  RH  076%=      5-min Rain = 0
KAM1 221234Z 29004KT M01/M05 A2969 RMK A01 T10101048  RH  075%=      5-min Rain = 0
KAM1 221235Z 28004KT M01/M05 A2969 RMK A01 T10091046  RH  076%=      5-min Rain = 0
KAM1 221236Z 27004KT M01/M05 A2969 RMK A01 T10081047  RH  075%=      5-min Rain = 0
KAM1 221237Z 27004KT M01/M05 A297 RMK A01 T10101050  RH  074%=      5-min Rain = 0
KAM1 221238Z 28005KT M01/M05 A297 RMK A01 T10111050  RH  075%=      5-min Rain = 0
KAM1 221239Z 29005KT M01/M05 A297 RMK A01 T10091048  RH  075%=      5-min Rain = 0
KAM1 221240Z 30005KT M01/M05 A297 RMK A01 T10071046  RH  075%=      5-min Rain = 0
KAM1 221241Z 27005KT M00/M05 A297 RMK A01 T10041045  RH  074%=      5-min Rain = 0
KAM1 221242Z 25008KT M01/M05 A297 RMK A01 T10051049  RH  072%=      5-min Rain = 0
KAM1 221243Z 27008KT M01/M05 A297 RMK A01 T10061048  RH  073%=      5-min Rain = 0
KAM1 221244Z 29007KT M00/M04 A297 RMK A01 T10041044  RH  074%=      5-min Rain = 0
KAM1 221245Z 30006KT M00/M04 A297 RMK A01 T10011042  RH  074%=      5-min Rain = 0
KAM1 221246Z 30006KT M00/M04 A297 RMK A01 T10011043  RH  073%=      5-min Rain = 0
KAM1 221247Z 29005KT M00/M04 A297 RMK A01 T10011043  RH  073%=      5-min Rain = 0
KAM1 221248Z 27004KT M00/M04 A297 RMK A01 T10011044  RH  073%=      5-min Rain = 0
KAM1 221249Z 25005KT M00/M05 A297 RMK A01 T10021046  RH  073%=      5-min Rain = 0
KAM1 221250Z 24007KT M00/M05 A297 RMK A01 T10041047  RH  073%=      5-min Rain = 0
KAM1 221251Z 24008KT M01/M05 A297 RMK A01 T10061046  RH  074%=      5-min Rain = 0
KAM1 221252Z 25008KT M01/M05 A297 RMK A01 T10071045  RH  075%=      5-min Rain = 0
KAM1 221253Z 25007KT M01/M04 A297 RMK A01 T10061044  RH  075%=      5-min Rain = 0
KAM1 221254Z 26006KT M01/M04 A297 RMK A01 T10051044  RH  075%=      5-min Rain = 0
KAM1 221255Z 26007KT M01/M04 A297 RMK A01 T10051044  RH  075%=      5-min Rain = 0
KAM1 221256Z 28006KT M01/M04 A297 RMK A01 T10051044  RH  075%=      5-min Rain = 0
KAM1 221257Z 28007KT M00/M04 A297 RMK A01 T10041043  RH  075%=      5-min Rain = 0
KAM1 221258Z 29007KT M00/M04 A297 RMK A01 T10031043  RH  074%=      5-min Rain = 0
KAM1 221259Z 30007KT M00/M04 A297 RMK A01 T10031043  RH  074%=      5-min Rain = 0
KAM1 221300Z 31007KT M00/M04 A297 RMK A01 T10041043  RH  075%=      5-min Rain = 0
KAM1 221301Z 31006KT M00/M04 A2971 RMK A01 T10041042  RH  075%=      5-min Rain = 0
KAM1 221302Z 30005KT M00/M04 A2971 RMK A01 T10031041  RH  075%=      5-min Rain = 0
KAM1 221303Z 29004KT M00/M04 A2971 RMK A01 T10031041  RH  075%=      5-min Rain = 0
KAM1 221304Z 28004KT M00/M04 A297 RMK A01 T10031041  RH  075%=      5-min Rain = 0
KAM1 221305Z 27004KT M00/M04 A297 RMK A01 T10031042  RH  075%=      5-min Rain = 0
KAM1 221306Z 26004KT M00/M04 A2971 RMK A01 T10031042  RH  075%=      5-min Rain = 0
KAM1 221307Z 27003KT M00/M04 A2971 RMK A01 T10031042  RH  075%=      5-min Rain = 0
KAM1 221308Z 35004KT M00/M04 A2971 RMK A01 T10021041  RH  075%=      5-min Rain = 0
KAM1 221309Z 34010KT 00/04 A2971 RMK A01 T00-00-38  RH  076%=      5-min Rain = 0
KAM1 221310Z 33012KT 01/M03 A2972 RMK A01 T00061033  RH  075%=      5-min Rain = 0
KAM1 221311Z 34014KT 01/M03 A2973 RMK A01 T00131032  RH  072%=      5-min Rain = 0
KAM1 221312Z 35018G25KT 02/M03 A2974 RMK A01 T00181032  RH  070%=      5-min Rain = 0
KAM1 221313Z 36020KT 02/M04 A2974 RMK A01 T00201035  RH  067%=      5-min Rain = 0
KAM1 221314Z 00015KT 02/M04 A2974 RMK A01 T00201036  RH  066%=      5-min Rain = 0
KAM1 221315Z 01012KT 02/M04 A2974 RMK A01 T00181037  RH  067%=      5-min Rain = 0
KAM1 221316Z 01014KT 02/M04 A2974 RMK A01 T00161037  RH  068%=      5-min Rain = 0
KAM1 221317Z 01018KT 01/M04 A2974 RMK A01 T00121037  RH  070%=      5-min Rain = 0
KAM1 221318Z 00019G24KT 01/M04 A2974 RMK A01 T00081035  RH  073%=      5-min Rain = 0
KAM1 221319Z 01021KT 01/M03 A2975 RMK A01 T00051034  RH  075%=      5-min Rain = 0
KAM1 221320Z 01020KT 00/M03 A2974 RMK A01 T00041032  RH  077%=      5-min Rain = 0
KAM1 221321Z 01017G22KT 00/M03 A2974 RMK A01 T00021031  RH  078%=      5-min Rain = 0
KAM1 221322Z 01018KT 00/M03 A2974 RMK A01 T00011030  RH  079%=      5-min Rain = 0
KAM1 221323Z 01016KT 00/03 A2975 RMK A01 T00000-30  RH  080%=      5-min Rain = 0
KAM1 221324Z 01019KT M00/M03 A2975 RMK A01 T10011029  RH  081%=      5-min Rain = 0
KAM1 221325Z 01021KT M00/M03 A2975 RMK A01 T10021028  RH  082%=      5-min Rain = 0
KAM1 221326Z 01020KT M00/M03 A2975 RMK A01 T10031028  RH  084%=      5-min Rain = 0
KAM1 221327Z 01020KT M00/M03 A2975 RMK A01 T10041026  RH  085%=      5-min Rain = 0
KAM1 221328Z 01019KT M01/M03 A2975 RMK A01 T10051026  RH  086%=      5-min Rain = 0
KAM1 221329Z 01016KT M01/M03 A2975 RMK A01 T10051025  RH  086%=      5-min Rain = 0
KAM1 221330Z 01018KT M01/M02 A2975 RMK A01 T10051024  RH  087%=      5-min Rain = 0
KAM1 221331Z 01016KT M01/M02 A2976 RMK A01 T10061024  RH  088%=      5-min Rain = 0
KAM1 221332Z 01014KT M01/M02 A2976 RMK A01 T10061023  RH  088%=      5-min Rain = 0
KAM1 221333Z 01014KT M01/M02 A2976 RMK A01 T10061023  RH  088%=      5-min Rain = 0
KAM1 221334Z 01015G20KT M01/M02 A2976 RMK A01 T10061023  RH  089%=      5-min Rain = 0
KAM1 221335Z 01017KT M01/M02 A2977 RMK A01 T10061022  RH  089%=      5-min Rain = 0
KAM1 221336Z 01016KT M01/M02 A2977 RMK A01 T10061022  RH  089%=      5-min Rain = 0
KAM1 221337Z 01017G22KT M01/M02 A2977 RMK A01 T10051021  RH  089%=      5-min Rain = 0
KAM1 221338Z 01018G24KT M01/M02 A2977 RMK A01 T10061020  RH  090%=      5-min Rain = 0
KAM1 221339Z 00019KT M01/M02 A2978 RMK A01 T10051020  RH  090%=      5-min Rain = 0
KAM1 221340Z 36019KT M01/M02 A2978 RMK A01 T10051019  RH  091%=      5-min Rain = 0
KAM1 221341Z 01019KT M01/M02 A2978 RMK A01 T10061018  RH  091%=      5-min Rain = 0
KAM1 221342Z 00020KT M01/M02 A2978 RMK A01 T10061018  RH  092%=      5-min Rain = 0
KAM1 221343Z 00015KT M01/M02 A2978 RMK A01 T10061017  RH  092%=      5-min Rain = 0
KAM1 221344Z 01022KT M01/M02 A2978 RMK A01 T10061017  RH  093%=      5-min Rain = 0
KAM1 221345Z 00020KT M01/M02 A2978 RMK A01 T10061016  RH  093%=      5-min Rain = 0
KAM1 221346Z 36018KT M01/M02 A2978 RMK A01 T10061016  RH  093%=      5-min Rain = 0
KAM1 221347Z 01015G20KT M01/M02 A2979 RMK A01 T10061016  RH  093%=      5-min Rain = 0
KAM1 221348Z 00017KT M01/M02 A2978 RMK A01 T10061015  RH  093%=      5-min Rain = 0
KAM1 221349Z 00018KT M01/M02 A2979 RMK A01 T10051015  RH  093%=      5-min Rain = 0
KAM1 221350Z 36014G21KT M01/M02 A2979 RMK A01 T10051015  RH  093%=      5-min Rain = 0
KAM1 221351Z 36017KT M01/M02 A2979 RMK A01 T10051015  RH  093%=      5-min Rain = 0
KAM1 221352Z 01015KT M01/M02 A2979 RMK A01 T10051015  RH  093%=      5-min Rain = 0
KAM1 221353Z 00018KT M01/M02 A2979 RMK A01 T10051015  RH  093%=      5-min Rain = 0
KAM1 221354Z 00020KT M01/M02 A2979 RMK A01 T10051015  RH  093%=      5-min Rain = 0
KAM1 221355Z 00020KT M00/M02 A2979 RMK A01 T10041015  RH  092%=      5-min Rain = 0
KAM1 221356Z 36017KT M01/M02 A2979 RMK A01 T10051015  RH  092%=      5-min Rain = 0
KAM1 221357Z 36018G24KT M01/M02 A2979 RMK A01 T10051015  RH  092%=      5-min Rain = 0
KAM1 221358Z 00021G29KT M01/M02 A2979 RMK A01 T10051016  RH  092%=      5-min Rain = 0
KAM1 221359Z 00024G29KT M01/M02 A2979 RMK A01 T10051016  RH  092%=      5-min Rain = 0
KAM1 221400Z 36020KT M01/M02 A298 RMK A01 T10051016  RH  092%=      5-min Rain = 0
KAM1 221401Z 36021G28KT M01/M02 A298 RMK A01 T10061017  RH  092%=      5-min Rain = 0
KAM1 221402Z 00023KT M01/M02 A298 RMK A01 T10061016  RH  093%=      5-min Rain = 0
KAM1 221403Z 01021G26KT M01/M02 A2979 RMK A01 T10061016  RH  093%=      5-min Rain = 0
KAM1 221404Z 01023KT M01/M02 A298 RMK A01 T10061016  RH  093%=      5-min Rain = 0
KAM1 221405Z 01023G28KT M01/M02 A298 RMK A01 T10071016  RH  093%=      5-min Rain = 0
KAM1 221406Z 00022KT M01/M02 A2979 RMK A01 T10071016  RH  093%=      5-min Rain = 0
KAM1 221407Z 00024KT M01/M02 A298 RMK A01 T10071016  RH  093%=      5-min Rain = 0
KAM1 221408Z 01020G26KT M01/M02 A298 RMK A01 T10071016  RH  093%=      5-min Rain = 0
KAM1 221409Z 01020G25KT M01/M02 A298 RMK A01 T10071017  RH  093%=      5-min Rain = 0
KAM1 221410Z 01022G28KT M01/M02 A298 RMK A01 T10071017  RH  093%=      5-min Rain = 0
KAM1 221411Z 00021KT M01/M02 A2981 RMK A01 T10081017  RH  093%=      5-min Rain = 0
KAM1 221412Z 00020KT M01/M02 A2981 RMK A01 T10081018  RH  093%=      5-min Rain = 0
KAM1 221413Z 01018G23KT M01/M02 A2981 RMK A01 T10081019  RH  093%=      5-min Rain = 0
KAM1 221414Z 01019KT M01/M02 A2981 RMK A01 T10081019  RH  092%=      5-min Rain = 0
KAM1 221415Z 36022KT M01/M02 A2981 RMK A01 T10081020  RH  092%=      5-min Rain = 0
KAM1 221416Z 36019G25KT M01/M02 A2981 RMK A01 T10081019  RH  092%=      5-min Rain = 0
KAM1 221417Z 36021KT M01/M02 A2981 RMK A01 T10081019  RH  092%=      5-min Rain = 0
KAM1 221418Z 36024G31KT M01/M02 A2981 RMK A01 T10081020  RH  092%=      5-min Rain = 0
KAM1 221419Z 35023KT M01/M02 A2981 RMK A01 T10091020  RH  092%=      5-min Rain = 0
KAM1 221420Z 36023KT M01/M02 A2981 RMK A01 T10101021  RH  092%=      5-min Rain = 0
KAM1 221421Z 35024KT M01/M02 A2981 RMK A01 T10101022  RH  092%=      5-min Rain = 0
KAM1 221422Z 36022G28KT M01/M02 A2981 RMK A01 T10101022  RH  092%=      5-min Rain = 0
KAM1 221423Z 36024G30KT M01/M02 A2982 RMK A01 T10111022  RH  092%=      5-min Rain = 0
KAM1 221424Z 36025KT M01/M02 A2982 RMK A01 T10111023  RH  092%=      5-min Rain = 0
KAM1 221425Z 36022KT M01/M02 A2981 RMK A01 T10111023  RH  092%=      5-min Rain = 0
KAM1 221426Z 00020KT M01/M02 A2981 RMK A01 T10111023  RH  092%=      5-min Rain = 0
KAM1 221427Z 00018G24KT M01/M02 A2981 RMK A01 T10111023  RH  092%=      5-min Rain = 0
KAM1 221428Z 01016KT M01/M02 A2982 RMK A01 T10111022  RH  092%=      5-min Rain = 0
KAM1 221429Z 00020KT M01/M02 A2982 RMK A01 T10111023  RH  092%=      5-min Rain = 0
KAM1 221430Z 00025KT M01/M02 A2982 RMK A01 T10111023  RH  092%=      5-min Rain = 0
KAM1 221431Z 00023G28KT M01/M02 A2981 RMK A01 T10111023  RH  091%=      5-min Rain = 0
KAM1 221432Z 36020KT M01/M02 A2981 RMK A01 T10111023  RH  091%=      5-min Rain = 0
KAM1 221433Z 36023G28KT M01/M02 A2982 RMK A01 T10111023  RH  091%=      5-min Rain = 0
KAM1 221434Z 35023KT M01/M02 A2982 RMK A01 T10111024  RH  091%=      5-min Rain = 0
KAM1 221435Z 36021G26KT M01/M02 A2982 RMK A01 T10121024  RH  091%=      5-min Rain = 0
KAM1 221436Z 35017G22KT M01/M02 A2982 RMK A01 T10111024  RH  091%=      5-min Rain = 0
KAM1 221437Z 35022G28KT M01/M03 A2982 RMK A01 T10121025  RH  090%=      5-min Rain = 0
KAM1 221438Z 35021KT M01/M03 A2982 RMK A01 T10111027  RH  089%=      5-min Rain = 0
KAM1 221439Z 35020KT M01/M03 A2982 RMK A01 T10111028  RH  089%=      5-min Rain = 0
KAM1 221440Z 35016G22KT M01/M03 A2982 RMK A01 T10111028  RH  089%=      5-min Rain = 0
KAM1 221441Z 35019G24KT M01/M03 A2982 RMK A01 T10111028  RH  088%=      5-min Rain = 0
KAM1 221442Z 35021KT M01/M03 A2982 RMK A01 T10111029  RH  088%=      5-min Rain = 0
KAM1 221443Z 36019KT M01/M03 A2982 RMK A01 T10111029  RH  088%=      5-min Rain = 0
KAM1 221444Z 36023G32KT M01/M03 A2983 RMK A01 T10121030  RH  087%=      5-min Rain = 0
KAM1 221445Z 35024G29KT M01/M03 A2983 RMK A01 T10121031  RH  087%=      5-min Rain = 0
KAM1 221446Z 35020G27KT M01/M03 A2983 RMK A01 T10121031  RH  087%=      5-min Rain = 0
KAM1 221447Z 35021G26KT M01/M03 A2983 RMK A01 T10131031  RH  087%=      5-min Rain = 0
KAM1 221448Z 36023KT M01/M03 A2983 RMK A01 T10131032  RH  087%=      5-min Rain = 0
KAM1 221449Z 35022KT M01/M03 A2983 RMK A01 T10131032  RH  087%=      5-min Rain = 0
KAM1 221450Z 35026G32KT M01/M03 A2983 RMK A01 T10131033  RH  087%=      5-min Rain = 0
KAM1 221451Z 35025KT M01/M03 A2983 RMK A01 T10141034  RH  086%=      5-min Rain = 0
KAM1 221452Z 35023G29KT M01/M04 A2983 RMK A01 T10141035  RH  086%=      5-min Rain = 0
KAM1 221453Z 36025G30KT M01/M04 A2983 RMK A01 T10141035  RH  086%=      5-min Rain = 0
KAM1 221454Z 35023G28KT M02/M04 A2983 RMK A01 T10151036  RH  085%=      5-min Rain = 0
KAM1 221455Z 35020G25KT M02/M04 A2983 RMK A01 T10151037  RH  085%=      5-min Rain = 0
KAM1 221456Z 35022G29KT M02/M04 A2983 RMK A01 T10151037  RH  085%=      5-min Rain = 0
KAM1 221457Z 36023KT M02/M04 A2983 RMK A01 T10151037  RH  085%=      5-min Rain = 0
KAM1 221458Z 35022KT M02/M04 A2983 RMK A01 T10161037  RH  085%=      5-min Rain = 0
KAM1 221459Z 35021G27KT M02/M04 A2983 RMK A01 T10161037  RH  085%=      5-min Rain = 0
KAM1 221500Z 35024G30KT M02/M04 A2983 RMK A01 T10161038  RH  085%=      5-min Rain = 0
KAM1 221501Z 35025G30KT M02/M04 A2983 RMK A01 T10161038  RH  085%=      5-min Rain = 0
KAM1 221502Z 34021G26KT M02/M04 A2983 RMK A01 T10161039  RH  085%=      5-min Rain = 0
KAM1 221503Z 35023KT M02/M04 A2984 RMK A01 T10171039  RH  085%=      5-min Rain = 0
KAM1 221504Z 35027KT M02/M04 A2984 RMK A01 T10171039  RH  085%=      5-min Rain = 0
KAM1 221505Z 36024KT M02/M04 A2984 RMK A01 T10161039  RH  084%=      5-min Rain = 0
KAM1 221506Z 36023G29KT M02/M04 A2984 RMK A01 T10161039  RH  084%=      5-min Rain = 0
KAM1 221507Z 35024G30KT M02/M04 A2984 RMK A01 T10161040  RH  084%=      5-min Rain = 0
KAM1 221508Z 35023G30KT M02/M04 A2984 RMK A01 T10161040  RH  084%=      5-min Rain = 0
KAM1 221509Z 35024G29KT M02/M04 A2984 RMK A01 T10161039  RH  084%=      5-min Rain = 0
KAM1 221510Z 35021G26KT M02/M04 A2984 RMK A01 T10161039  RH  084%=      5-min Rain = 0
KAM1 221511Z 35026G31KT M02/M04 A2984 RMK A01 T10161040  RH  084%=      5-min Rain = 0
KAM1 221512Z 35026KT M02/M04 A2984 RMK A01 T10171041  RH  084%=      5-min Rain = 0
KAM1 221513Z 34021KT M02/M04 A2984 RMK A01 T10171041  RH  084%=      5-min Rain = 0
KAM1 221514Z 35022KT M02/M04 A2984 RMK A01 T10161040  RH  084%=      5-min Rain = 0
KAM1 221515Z 34020G25KT M02/M04 A2984 RMK A01 T10161040  RH  084%=      5-min Rain = 0
KAM1 221516Z 35022G28KT M02/M04 A2984 RMK A01 T10151040  RH  083%=      5-min Rain = 0
KAM1 221517Z 35023G28KT M02/M04 A2984 RMK A01 T10151040  RH  083%=      5-min Rain = 0
KAM1 221518Z 35022KT M02/M04 A2984 RMK A01 T10151041  RH  083%=      5-min Rain = 0
KAM1 221519Z 35021G27KT M02/M04 A2984 RMK A01 T10161041  RH  083%=      5-min Rain = 0
KAM1 221520Z 34018G23KT M02/M04 A2985 RMK A01 T10151041  RH  083%=      5-min Rain = 0
KAM1 221521Z 35018G23KT M02/M04 A2985 RMK A01 T10151040  RH  083%=      5-min Rain = 0
KAM1 221522Z 35020G26KT M02/M04 A2985 RMK A01 T10151041  RH  083%=      5-min Rain = 0
KAM1 221523Z 34019G24KT M02/M04 A2985 RMK A01 T10151041  RH  083%=      5-min Rain = 0
KAM1 221524Z 35022KT M02/M04 A2985 RMK A01 T10151041  RH  083%=      5-min Rain = 0
KAM1 221525Z 35022G28KT M02/M04 A2985 RMK A01 T10151041  RH  082%=      5-min Rain = 0
KAM1 221526Z 35025KT M02/M04 A2985 RMK A01 T10151042  RH  082%=      5-min Rain = 0
KAM1 221527Z 35023G28KT M02/M04 A2985 RMK A01 T10161042  RH  082%=      5-min Rain = 0
KAM1 221528Z 35025G30KT M02/M04 A2985 RMK A01 T10161042  RH  082%=      5-min Rain = 0
KAM1 221529Z 35025KT M02/M04 A2985 RMK A01 T10161042  RH  082%=      5-min Rain = 0
KAM1 221530Z 35026G31KT M02/M04 A2985 RMK A01 T10171043  RH  082%=      5-min Rain = 0
KAM1 221531Z 35023KT M02/M04 A2985 RMK A01 T10171043  RH  082%=      5-min Rain = 0
KAM1 221532Z 35023G30KT M02/M04 A2986 RMK A01 T10181044  RH  083%=      5-min Rain = 0
KAM1 221533Z 35027KT M02/M04 A2986 RMK A01 T10181044  RH  083%=      5-min Rain = 0
KAM1 221534Z 35030KT M02/M04 A2986 RMK A01 T10191044  RH  083%=      5-min Rain = 0
KAM1 221535Z 35026KT M02/M05 A2986 RMK A01 T10201045  RH  083%=      5-min Rain = 0
KAM1 221536Z 35026KT M02/M04 A2986 RMK A01 T10201044  RH  083%=      5-min Rain = 0
KAM1 221537Z 36027G33KT M02/M04 A2986 RMK A01 T10201044  RH  083%=      5-min Rain = 0
KAM1 221538Z 36026G31KT M02/M04 A2986 RMK A01 T10201044  RH  084%=      5-min Rain = 0
KAM1 221539Z 35026G33KT M02/M04 A2987 RMK A01 T10201044  RH  084%=      5-min Rain = 0
KAM1 221540Z 35024KT M02/M04 A2987 RMK A01 T10201044  RH  084%=      5-min Rain = 0
KAM1 221541Z 35025KT M02/M04 A2986 RMK A01 T10191044  RH  083%=      5-min Rain = 0
KAM1 221542Z 35022G28KT M02/M04 A2986 RMK A01 T10191044  RH  083%=      5-min Rain = 0
KAM1 221543Z 36024G30KT M02/M04 A2987 RMK A01 T10191044  RH  083%=      5-min Rain = 0
KAM1 221544Z 35022KT M02/M04 A2987 RMK A01 T10191044  RH  083%=      5-min Rain = 0
KAM1 221545Z 35021KT M02/M04 A2987 RMK A01 T10191044  RH  083%=      5-min Rain = 0
KAM1 221546Z 35023G32KT M02/M04 A2987 RMK A01 T10191044  RH  083%=      5-min Rain = 0
KAM1 221547Z 35022G30KT M02/M04 A2987 RMK A01 T10191044  RH  083%=      5-min Rain = 0
KAM1 221548Z 34022G27KT M02/M04 A2986 RMK A01 T10191044  RH  083%=      5-min Rain = 0
KAM1 221549Z 35026G32KT M02/M04 A2987 RMK A01 T10191044  RH  083%=      5-min Rain = 0
KAM1 221550Z 35026G31KT M02/M05 A2987 RMK A01 T10191045  RH  083%=      5-min Rain = 0
KAM1 221551Z 35023G30KT M02/M05 A2987 RMK A01 T10191045  RH  083%=      5-min Rain = 0
KAM1 221552Z 35026G31KT M02/M04 A2987 RMK A01 T10191044  RH  083%=      5-min Rain = 0
KAM1 221553Z 35024G29KT M02/M05 A2987 RMK A01 T10191045  RH  083%=      5-min Rain = 0
KAM1 221554Z 35022G29KT M02/M04 A2987 RMK A01 T10191044  RH  083%=      5-min Rain = 0
KAM1 221555Z 35022KT M02/M04 A2987 RMK A01 T10191044  RH  083%=      5-min Rain = 0
KAM1 221556Z 35020KT M02/M04 A2987 RMK A01 T10181044  RH  083%=      5-min Rain = 0
KAM1 221557Z 36020KT M02/M04 A2987 RMK A01 T10181043  RH  083%=      5-min Rain = 0
KAM1 221558Z 35027G33KT M02/M04 A2988 RMK A01 T10171043  RH  082%=      5-min Rain = 0
KAM1 221559Z 35026G32KT M02/M05 A2988 RMK A01 T10181045  RH  082%=      5-min Rain = 0
KAM1 221600Z 35023KT M02/M05 A2988 RMK A01 T10181045  RH  082%=      5-min Rain = 0
KAM1 221601Z 35024G30KT M02/M05 A2988 RMK A01 T10181045  RH  082%=      5-min Rain = 0
KAM1 221602Z 35025KT M02/M05 A2988 RMK A01 T10181045  RH  082%=      5-min Rain = 0
KAM1 221603Z 36021G27KT M02/M05 A2988 RMK A01 T10181045  RH  082%=      5-min Rain = 0
KAM1 221604Z 36020G26KT M02/M05 A2989 RMK A01 T10181045  RH  082%=      5-min Rain = 0
KAM1 221605Z 35025G30KT M02/M05 A2989 RMK A01 T10181045  RH  081%=      5-min Rain = 0
KAM1 221606Z 35025G30KT M02/M05 A2989 RMK A01 T10181046  RH  081%=      5-min Rain = 0
KAM1 221607Z 36022G27KT M02/M05 A2989 RMK A01 T10181046  RH  081%=      5-min Rain = 0
KAM1 221608Z 00023G30KT M02/M05 A2989 RMK A01 T10181046  RH  082%=      5-min Rain = 0
KAM1 221609Z 35022G27KT M02/M05 A2989 RMK A01 T10181046  RH  081%=      5-min Rain = 0
KAM1 221610Z 36023KT M02/M05 A2989 RMK A01 T10181046  RH  081%=      5-min Rain = 0
KAM1 221611Z 36023KT M02/M05 A2989 RMK A01 T10181046  RH  081%=      5-min Rain = 0
KAM1 221612Z 36024G29KT M02/M05 A2989 RMK A01 T10171046  RH  081%=      5-min Rain = 0
KAM1 221613Z 36023G28KT M02/M05 A2989 RMK A01 T10171046  RH  081%=      5-min Rain = 0
KAM1 221614Z 00023G28KT M02/M05 A299 RMK A01 T10171046  RH  081%=      5-min Rain = 0
KAM1 221615Z 00025KT M02/M05 A2989 RMK A01 T10171047  RH  081%=      5-min Rain = 0
KAM1 221616Z 36025G31KT M02/M05 A2989 RMK A01 T10171046  RH  081%=      5-min Rain = 0
KAM1 221617Z 35025G30KT M02/M05 A2989 RMK A01 T10171046  RH  081%=      5-min Rain = 0
KAM1 221618Z 35023KT M02/M05 A2989 RMK A01 T10171046  RH  081%=      5-min Rain = 0
KAM1 221619Z 35024KT M02/M05 A2989 RMK A01 T10171046  RH  081%=      5-min Rain = 0
KAM1 221620Z 35021KT M02/M05 A2989 RMK A01 T10171047  RH  081%=      5-min Rain = 0
KAM1 221621Z 00023G30KT M02/M05 A299 RMK A01 T10161045  RH  081%=      5-min Rain = 0
KAM1 221622Z 36023G29KT M02/M05 A2989 RMK A01 T10161046  RH  080%=      5-min Rain = 0
KAM1 221623Z 36025KT M02/M05 A2989 RMK A01 T10171046  RH  081%=      5-min Rain = 0
KAM1 221624Z 36024KT M02/M05 A2989 RMK A01 T10171046  RH  081%=      5-min Rain = 0
KAM1 221625Z 36022KT M02/M05 A2989 RMK A01 T10171046  RH  081%=      5-min Rain = 0
KAM1 221626Z 36021G27KT M02/M05 A299 RMK A01 T10171046  RH  081%=      5-min Rain = 0
KAM1 221627Z 36020KT M02/M05 A299 RMK A01 T10171046  RH  081%=      5-min Rain = 0
KAM1 221628Z 36021G26KT M02/M05 A299 RMK A01 T10161045  RH  081%=      5-min Rain = 0
KAM1 221629Z 00023G28KT M02/M05 A299 RMK A01 T10161046  RH  080%=      5-min Rain = 0
KAM1 221630Z 36024KT M02/M05 A2991 RMK A01 T10171046  RH  080%=      5-min Rain = 0
KAM1 221631Z 36024KT M02/M05 A2991 RMK A01 T10171046  RH  081%=      5-min Rain = 0
KAM1 221632Z 36025G33KT M02/M05 A2991 RMK A01 T10161046  RH  080%=      5-min Rain = 0
KAM1 221633Z 35025G32KT M02/M05 A2991 RMK A01 T10161046  RH  080%=      5-min Rain = 0
KAM1 221634Z 00024KT M02/M05 A2991 RMK A01 T10171046  RH  080%=      5-min Rain = 0
KAM1 221635Z 36024G29KT M02/M05 A2991 RMK A01 T10171046  RH  081%=      5-min Rain = 0
KAM1 221636Z 36020G27KT M02/M05 A2991 RMK A01 T10181046  RH  081%=      5-min Rain = 0
KAM1 221637Z 35023G29KT M02/M05 A2991 RMK A01 T10171046  RH  081%=      5-min Rain = 0
KAM1 221638Z 36020G25KT M02/M05 A2991 RMK A01 T10171046  RH  081%=      5-min Rain = 0
KAM1 221639Z 35022G28KT M02/M05 A2991 RMK A01 T10171046  RH  081%=      5-min Rain = 0
KAM1 221640Z 35024G29KT M02/M05 A2991 RMK A01 T10171046  RH  081%=      5-min Rain = 0
KAM1 221641Z 35024KT M02/M05 A2991 RMK A01 T10171046  RH  081%=      5-min Rain = 0
KAM1 221642Z 35021KT M02/M05 A2991 RMK A01 T10171046  RH  081%=      5-min Rain = 0
KAM1 221643Z 35021G27KT M02/M05 A2992 RMK A01 T10171045  RH  081%=      5-min Rain = 0
KAM1 221644Z 36018G25KT M02/M05 A2992 RMK A01 T10171045  RH  081%=      5-min Rain = 0
KAM1 221645Z 35020KT M02/M04 A2992 RMK A01 T10161044  RH  081%=      5-min Rain = 0
KAM1 221646Z 35017KT M02/M04 A2992 RMK A01 T10161044  RH  081%=      5-min Rain = 0
KAM1 221647Z 00023KT M02/M05 A2992 RMK A01 T10161045  RH  081%=      5-min Rain = 0
KAM1 221648Z 00021KT M02/M04 A2992 RMK A01 T10161044  RH  081%=      5-min Rain = 0
KAM1 221649Z 00022KT M02/M05 A2992 RMK A01 T10161045  RH  081%=      5-min Rain = 0
KAM1 221650Z 36021KT M02/M05 A2992 RMK A01 T10171045  RH  081%=      5-min Rain = 0
KAM1 221651Z 00019KT M02/M04 A2992 RMK A01 T10161044  RH  081%=      5-min Rain = 0
KAM1 221652Z 35016KT M02/M04 A2992 RMK A01 T10161044  RH  081%=      5-min Rain = 0
KAM1 221653Z 35014KT M02/M04 A2992 RMK A01 T10161044  RH  081%=      5-min Rain = 0
KAM1 221654Z 34020G26KT M02/M04 A2992 RMK A01 T10151044  RH  081%=      5-min Rain = 0
KAM1 221655Z 35023KT M02/M05 A2992 RMK A01 T10151045  RH  080%=      5-min Rain = 0
KAM1 221656Z 34022G28KT M02/M05 A2992 RMK A01 T10161045  RH  080%=      5-min Rain = 0
KAM1 221657Z 34024KT M02/M05 A2992 RMK A01 T10161046  RH  080%=      5-min Rain = 0
KAM1 221658Z 34025KT M02/M05 A2992 RMK A01 T10161047  RH  080%=      5-min Rain = 0
KAM1 221659Z 34025KT M02/M05 A2993 RMK A01 T10171047  RH  079%=      5-min Rain = 0
KAM1 221700Z 35027G32KT M02/M05 A2993 RMK A01 T10171048  RH  079%=      5-min Rain = 0
KAM1 221701Z 36023G30KT M02/M05 A2993 RMK A01 T10171049  RH  079%=      5-min Rain = 0
KAM1 221702Z 35024G29KT M02/M05 A2993 RMK A01 T10181049  RH  079%=      5-min Rain = 0
KAM1 221703Z 35020KT M02/M05 A2993 RMK A01 T10171049  RH  079%=      5-min Rain = 0
KAM1 221704Z 35022G28KT M02/M05 A2993 RMK A01 T10171049  RH  079%=      5-min Rain = 0
KAM1 221705Z 35022KT M02/M05 A2993 RMK A01 T10171049  RH  079%=      5-min Rain = 0
KAM1 221706Z 34022KT M02/M05 A2993 RMK A01 T10171050  RH  078%=      5-min Rain = 0
KAM1 221707Z 35026KT M02/M05 A2993 RMK A01 T10181051  RH  078%=      5-min Rain = 0
KAM1 221708Z 34026G31KT M02/M05 A2993 RMK A01 T10191051  RH  078%=      5-min Rain = 0
KAM1 221709Z 35022G27KT M02/M05 A2993 RMK A01 T10191052  RH  078%=      5-min Rain = 0
KAM1 221710Z 34020KT M02/M05 A2993 RMK A01 T10201052  RH  079%=      5-min Rain = 0
KAM1 221711Z 35024KT M02/M05 A2993 RMK A01 T10191051  RH  079%=      5-min Rain = 0
KAM1 221712Z 34022KT M02/M05 A2993 RMK A01 T10191052  RH  078%=      5-min Rain = 0
KAM1 221713Z 34021KT M02/M05 A2993 RMK A01 T10191053  RH  078%=      5-min Rain = 0
KAM1 221714Z 34022G27KT M02/M05 A2993 RMK A01 T10191053  RH  078%=      5-min Rain = 0
KAM1 221715Z 35024G29KT M02/M05 A2993 RMK A01 T10201054  RH  077%=      5-min Rain = 0
KAM1 221716Z 34024G29KT M02/M06 A2993 RMK A01 T10201055  RH  077%=      5-min Rain = 0
KAM1 221717Z 34025KT M02/M06 A2993 RMK A01 T10201056  RH  077%=      5-min Rain = 0
KAM1 221718Z 34022G29KT M02/M06 A2993 RMK A01 T10211057  RH  076%=      5-min Rain = 0
KAM1 221719Z 35025G30KT M02/M06 A2993 RMK A01 T10211057  RH  076%=      5-min Rain = 0
KAM1 221720Z 35023G28KT M02/M06 A2993 RMK A01 T10211058  RH  076%=      5-min Rain = 0
KAM1 221721Z 35024KT M02/M06 A2993 RMK A01 T10201058  RH  075%=      5-min Rain = 0
KAM1 221722Z 34023G28KT M02/M06 A2993 RMK A01 T10211059  RH  075%=      5-min Rain = 0
KAM1 221723Z 34022G29KT M02/M06 A2993 RMK A01 T10201059  RH  075%=      5-min Rain = 0
KAM1 221724Z 34022G27KT M02/M06 A2993 RMK A01 T10201059  RH  075%=      5-min Rain = 0
KAM1 221725Z 35024G30KT M02/M06 A2993 RMK A01 T10211060  RH  075%=      5-min Rain = 0
KAM1 221726Z 35026G31KT M02/M06 A2994 RMK A01 T10211060  RH  074%=      5-min Rain = 0
KAM1 221727Z 34024G29KT M02/M06 A2993 RMK A01 T10211061  RH  074%=      5-min Rain = 0
KAM1 221728Z 34026G31KT M02/M06 A2993 RMK A01 T10211061  RH  074%=      5-min Rain = 0
KAM1 221729Z 35025G31KT M02/M06 A2994 RMK A01 T10211062  RH  074%=      5-min Rain = 0
KAM1 221730Z 35024G29KT M02/M06 A2994 RMK A01 T10221063  RH  073%=      5-min Rain = 0
KAM1 221731Z 35022KT M02/M06 A2994 RMK A01 T10211063  RH  073%=      5-min Rain = 0
KAM1 221732Z 35021KT M02/M06 A2993 RMK A01 T10201062  RH  073%=      5-min Rain = 0
KAM1 221733Z 35022KT M02/M06 A2994 RMK A01 T10181062  RH  072%=      5-min Rain = 0
KAM1 221734Z 34020KT M02/M06 A2994 RMK A01 T10171062  RH  071%=      5-min Rain = 0
KAM1 221735Z 35018KT M02/M06 A2994 RMK A01 T10161062  RH  071%=      5-min Rain = 0
KAM1 221736Z 34024KT M01/M06 A2994 RMK A01 T10141062  RH  070%=      5-min Rain = 0
KAM1 221737Z 34025G31KT M02/M07 A2994 RMK A01 T10151065  RH  069%=      5-min Rain = 0
KAM1 221738Z 35023KT M02/M07 A2995 RMK A01 T10171067  RH  068%=      5-min Rain = 0
KAM1 221739Z 34021KT M02/M07 A2994 RMK A01 T10181068  RH  068%=      5-min Rain = 0
KAM1 221740Z 34021G27KT M02/M07 A2995 RMK A01 T10181068  RH  069%=      5-min Rain = 0
KAM1 221741Z 34022G29KT M02/M07 A2995 RMK A01 T10171067  RH  069%=      5-min Rain = 0
KAM1 221742Z 34019G25KT M02/M07 A2995 RMK A01 T10181069  RH  068%=      5-min Rain = 0
KAM1 221743Z 34022G27KT M02/M07 A2995 RMK A01 T10181069  RH  068%=      5-min Rain = 0
KAM1 221744Z 34019KT M02/M07 A2995 RMK A01 T10181070  RH  068%=      5-min Rain = 0
KAM1 221745Z 34023KT M02/M07 A2995 RMK A01 T10181070  RH  068%=      5-min Rain = 0
KAM1 221746Z 34021G26KT M02/M07 A2995 RMK A01 T10181070  RH  067%=      5-min Rain = 0
KAM1 221747Z 34023KT M02/M07 A2995 RMK A01 T10181071  RH  067%=      5-min Rain = 0
KAM1 221748Z 34025G30KT M02/M07 A2995 RMK A01 T10181072  RH  067%=      5-min Rain = 0
KAM1 221749Z 34021KT M02/M07 A2995 RMK A01 T10191073  RH  067%=      5-min Rain = 0
KAM1 221750Z 34020G25KT M02/M07 A2995 RMK A01 T10191073  RH  066%=      5-min Rain = 0
KAM1 221751Z 33024KT M02/M07 A2995 RMK A01 T10181072  RH  066%=      5-min Rain = 0
KAM1 221752Z 34017KT M02/M07 A2995 RMK A01 T10181072  RH  066%=      5-min Rain = 0
KAM1 221753Z 35014KT M02/M07 A2995 RMK A01 T10161071  RH  066%=      5-min Rain = 0
KAM1 221754Z 34022KT M01/M07 A2995 RMK A01 T10141069  RH  066%=      5-min Rain = 0
KAM1 221755Z 34022G28KT M02/M07 A2995 RMK A01 T10151072  RH  065%=      5-min Rain = 0
KAM1 221756Z 35023KT M02/M07 A2995 RMK A01 T10161074  RH  065%=      5-min Rain = 0
KAM1 221757Z 34019KT M02/M07 A2995 RMK A01 T10171074  RH  065%=      5-min Rain = 0
KAM1 221758Z 34017G23KT M02/M07 A2995 RMK A01 T10161072  RH  065%=      5-min Rain = 0
KAM1 221759Z 34021KT M02/M07 A2995 RMK A01 T10151072  RH  065%=      5-min Rain = 0
KAM1 221800Z 34015KT M02/M07 A2996 RMK A01 T10161074  RH  065%=      5-min Rain = 0
KAM1 221801Z 35019KT M02/M07 A2996 RMK A01 T10161072  RH  065%=      5-min Rain = 0
KAM1 221802Z 33018KT M02/M07 A2996 RMK A01 T10161073  RH  065%=      5-min Rain = 0
KAM1 221803Z 33019G25KT M02/M08 A2995 RMK A01 T10151075  RH  064%=      5-min Rain = 0
KAM1 221804Z 33024KT M02/M08 A2995 RMK A01 T10161076  RH  063%=      5-min Rain = 0
KAM1 221805Z 33024G30KT M02/M08 A2995 RMK A01 T10171078  RH  063%=      5-min Rain = 0
KAM1 221806Z 33025G31KT M02/M08 A2995 RMK A01 T10181079  RH  063%=      5-min Rain = 0
KAM1 221807Z 33026KT M02/M08 A2995 RMK A01 T10191079  RH  063%=      5-min Rain = 0
KAM1 221808Z 33025G31KT M02/M08 A2995 RMK A01 T10201080  RH  064%=      5-min Rain = 0
KAM1 221809Z 34025G30KT M02/M08 A2995 RMK A01 T10201080  RH  064%=      5-min Rain = 0
KAM1 221810Z 34025G31KT M02/M08 A2995 RMK A01 T10201080  RH  064%=      5-min Rain = 0
KAM1 221811Z 34020G27KT M02/M08 A2996 RMK A01 T10211080  RH  064%=      5-min Rain = 0
KAM1 221812Z 33026KT M02/M08 A2996 RMK A01 T10201079  RH  064%=      5-min Rain = 0
KAM1 221813Z 34023G30KT M02/M08 A2996 RMK A01 T10201080  RH  063%=      5-min Rain = 0
KAM1 221814Z 34027KT M02/M08 A2996 RMK A01 T10201081  RH  063%=      5-min Rain = 0
KAM1 221815Z 34023G29KT M02/M08 A2996 RMK A01 T10221083  RH  063%=      5-min Rain = 0
KAM1 221816Z 34023G29KT M02/M08 A2996 RMK A01 T10211082  RH  063%=      5-min Rain = 0
KAM1 221817Z 34023G28KT M02/M08 A2996 RMK A01 T10201081  RH  063%=      5-min Rain = 0
KAM1 221818Z 35024G30KT M02/M08 A2996 RMK A01 T10191081  RH  063%=      5-min Rain = 0
KAM1 221819Z 35023KT M02/M08 A2996 RMK A01 T10191081  RH  063%=      5-min Rain = 0
KAM1 221820Z 34024G29KT M02/M08 A2996 RMK A01 T10181081  RH  062%=      5-min Rain = 0
KAM1 221821Z 34023KT M02/M08 A2996 RMK A01 T10171081  RH  062%=      5-min Rain = 0
KAM1 221822Z 35022KT M02/M08 A2996 RMK A01 T10161080  RH  062%=      5-min Rain = 0
KAM1 221823Z 35021G26KT M02/M08 A2996 RMK A01 T10151081  RH  061%=      5-min Rain = 0
KAM1 221824Z 35021KT M02/M08 A2996 RMK A01 T10151080  RH  061%=      5-min Rain = 0
KAM1 221825Z 35026KT M02/M08 A2996 RMK A01 T10151081  RH  061%=      5-min Rain = 0
KAM1 221826Z 35024KT M02/M08 A2996 RMK A01 T10161083  RH  060%=      5-min Rain = 0
KAM1 221827Z 35023G30KT M02/M08 A2996 RMK A01 T10171083  RH  061%=      5-min Rain = 0
KAM1 221828Z 35025G30KT M02/M08 A2996 RMK A01 T10161083  RH  060%=      5-min Rain = 0
KAM1 221829Z 34025KT M02/M08 A2996 RMK A01 T10171084  RH  060%=      5-min Rain = 0
KAM1 221830Z 34022KT M02/M09 A2996 RMK A01 T10181085  RH  060%=      5-min Rain = 0
KAM1 221831Z 35021G28KT M02/M08 A2996 RMK A01 T10171083  RH  061%=      5-min Rain = 0
KAM1 221832Z 35021G27KT M02/M08 A2996 RMK A01 T10151081  RH  061%=      5-min Rain = 0
KAM1 221833Z 35024KT M01/M08 A2996 RMK A01 T10141082  RH  060%=      5-min Rain = 0
KAM1 221834Z 35021KT M02/M09 A2996 RMK A01 T10151085  RH  059%=      5-min Rain = 0
KAM1 221835Z 35025KT M02/M09 A2996 RMK A01 T10151085  RH  059%=      5-min Rain = 0
KAM1 221836Z 36027KT M02/M09 A2996 RMK A01 T10151087  RH  058%=      5-min Rain = 0
KAM1 221837Z 35024G31KT M02/M09 A2996 RMK A01 T10161088  RH  058%=      5-min Rain = 0
KAM1 221838Z 34025G31KT M02/M09 A2996 RMK A01 T10151087  RH  058%=      5-min Rain = 0
KAM1 221839Z 34024KT M01/M09 A2996 RMK A01 T10141088  RH  057%=      5-min Rain = 0
KAM1 221840Z 35025KT M02/M09 A2996 RMK A01 T10151089  RH  057%=      5-min Rain = 0
KAM1 221841Z 35025KT M02/M09 A2996 RMK A01 T10151089  RH  057%=      5-min Rain = 0
KAM1 221842Z 35023KT M02/M09 A2996 RMK A01 T10151089  RH  057%=      5-min Rain = 0
KAM1 221843Z 36021G28KT M01/M09 A2996 RMK A01 T10141088  RH  057%=      5-min Rain = 0
KAM1 221844Z 35021G27KT M01/M09 A2996 RMK A01 T10121085  RH  057%=      5-min Rain = 0
KAM1 221845Z 35023KT M01/M09 A2996 RMK A01 T10111087  RH  056%=      5-min Rain = 0
KAM1 221846Z 35020KT M01/M09 A2996 RMK A01 T10121089  RH  056%=      5-min Rain = 0
KAM1 221847Z 35023G29KT M01/M09 A2996 RMK A01 T10111088  RH  056%=      5-min Rain = 0
KAM1 221848Z 35025G31KT M01/M09 A2996 RMK A01 T10121090  RH  056%=      5-min Rain = 0
KAM1 221849Z 35021G28KT M01/M09 A2996 RMK A01 T10141091  RH  056%=      5-min Rain = 0
KAM1 221850Z 35019G27KT M01/M09 A2996 RMK A01 T10141090  RH  056%=      5-min Rain = 0
KAM1 221851Z 35026KT M01/M09 A2996 RMK A01 T10101087  RH  056%=      5-min Rain = 0
KAM1 221852Z 35028KT M01/M09 A2996 RMK A01 T10121092  RH  054%=      5-min Rain = 0
KAM1 221853Z 35027G32KT M01/M09 A2996 RMK A01 T10141094  RH  055%=      5-min Rain = 0
KAM1 221854Z 34028G33KT M02/M09 A2996 RMK A01 T10151094  RH  055%=      5-min Rain = 0
KAM1 221855Z 35026G31KT M02/M09 A2996 RMK A01 T10151094  RH  055%=      5-min Rain = 0
KAM1 221856Z 35026G31KT M01/M09 A2996 RMK A01 T10141093  RH  055%=      5-min Rain = 0
KAM1 221857Z 35026KT M01/M09 A2996 RMK A01 T10131092  RH  055%=      5-min Rain = 0
KAM1 221858Z 35026G31KT M01/M09 A2996 RMK A01 T10121092  RH  055%=      5-min Rain = 0
KAM1 221859Z 34023G32KT M01/M09 A2996 RMK A01 T10121093  RH  054%=      5-min Rain = 0
KAM1 221900Z 34026G32KT M01/M09 A2996 RMK A01 T10121093  RH  054%=      5-min Rain = 0
KAM1 221901Z 34024KT M01/M09 A2996 RMK A01 T10121093  RH  054%=      5-min Rain = 0
KAM1 221902Z 34022G27KT M01/M09 A2996 RMK A01 T10121093  RH  054%=      5-min Rain = 0
KAM1 221903Z 34027G33KT M01/M09 A2996 RMK A01 T10101091  RH  054%=      5-min Rain = 0
KAM1 221904Z 33024KT M01/M09 A2996 RMK A01 T10091093  RH  053%=      5-min Rain = 0
KAM1 221905Z 33027G33KT M01/M10 A2996 RMK A01 T10091095  RH  052%=      5-min Rain = 0
KAM1 221906Z 33027G34KT M01/M10 A2996 RMK A01 T10101097  RH  052%=      5-min Rain = 0
KAM1 221907Z 33024G32KT M01/M10 A2995 RMK A01 T10101097  RH  052%=      5-min Rain = 0
KAM1 221908Z 33029G35KT M01/M10 A2995 RMK A01 T10081095  RH  052%=      5-min Rain = 0
KAM1 221909Z 33027KT M01/M10 A2995 RMK A01 T10081096  RH  051%=      5-min Rain = 0
KAM1 221910Z 34026G31KT M01/M10 A2995 RMK A01 T10081096  RH  051%=      5-min Rain = 0
KAM1 221911Z 34028G33KT M01/M10 A2995 RMK A01 T10071095  RH  051%=      5-min Rain = 0
KAM1 221912Z 34025KT M00/M09 A2995 RMK A01 T10041092  RH  052%=      5-min Rain = 0
KAM1 221913Z 34022G29KT M00/M09 A2995 RMK A01 T10031092  RH  051%=      5-min Rain = 0
KAM1 221914Z 34028KT M00/M09 A2996 RMK A01 T10011092  RH  050%=      5-min Rain = 0
KAM1 221915Z 34025G32KT M00/M10 A2996 RMK A01 T10021095  RH  050%=      5-min Rain = 0
KAM1 221916Z 35020G26KT M00/M09 A2996 RMK A01 T10011094  RH  049%=      5-min Rain = 0
KAM1 221917Z 35025G33KT 00/M09 A2996 RMK A01 T00031090  RH  049%=      5-min Rain = 0
KAM1 221918Z 34031G38KT 00/M09 A2996 RMK A01 T00021094  RH  048%=      5-min Rain = 0
KAM1 221919Z 34032G39KT M00/M10 A2996 RMK A01 T10031100  RH  048%=      5-min Rain = 0
KAM1 221920Z 34025G31KT M01/M10 A2997 RMK A01 T10081103  RH  049%=      5-min Rain = 0
KAM1 221921Z 35024KT M01/M10 A2997 RMK A01 T10061097  RH  050%=      5-min Rain = 0
KAM1 221922Z 35023G29KT M00/M09 A2997 RMK A01 T10021094  RH  050%=      5-min Rain = 0
KAM1 221923Z 34029G34KT 00/10 A2997 RMK A01 T00-00-95  RH  049%=      5-min Rain = 0
KAM1 221924Z 34025G30KT M00/M10 A2997 RMK A01 T10041101  RH  048%=      5-min Rain = 0
KAM1 221925Z 34030G35KT M01/M10 A2996 RMK A01 T10061101  RH  048%=      5-min Rain = 0
KAM1 221926Z 34024KT M01/M10 A2996 RMK A01 T10061102  RH  048%=      5-min Rain = 0
KAM1 221927Z 34022G28KT M00/M10 A2996 RMK A01 T10041099  RH  049%=      5-min Rain = 0
KAM1 221928Z 35027G35KT 00/10 A2996 RMK A01 T00-00-96  RH  049%=      5-min Rain = 0
KAM1 221929Z 35030G35KT 00/M10 A2996 RMK A01 T00011098  RH  047%=      5-min Rain = 0
KAM1 221930Z 35026G31KT M00/M10 A2996 RMK A01 T10031103  RH  047%=      5-min Rain = 0
KAM1 221931Z 34028KT M00/M10 A2995 RMK A01 T10041103  RH  047%=      5-min Rain = 0
KAM1 221932Z 34025G30KT M00/M10 A2995 RMK A01 T10041103  RH  047%=      5-min Rain = 0
KAM1 221933Z 34033G38KT M00/M10 A2994 RMK A01 T10011101  RH  047%=      5-min Rain = 0
KAM1 221934Z 35030KT M00/M11 A2995 RMK A01 T10031106  RH  046%=      5-min Rain = 0
KAM1 221935Z 34031G38KT M01/M11 A2995 RMK A01 T10051107  RH  046%=      5-min Rain = 0
KAM1 221936Z 34027G33KT M01/M11 A2995 RMK A01 T10051106  RH  046%=      5-min Rain = 0
KAM1 221937Z 35025G32KT M00/M11 A2995 RMK A01 T10041105  RH  046%=      5-min Rain = 0
KAM1 221938Z 35024KT M00/M10 A2995 RMK A01 T10021103  RH  046%=      5-min Rain = 0
KAM1 221939Z 34023G28KT M00/M10 A2995 RMK A01 T10011103  RH  046%=      5-min Rain = 0
KAM1 221940Z 36023G30KT 00/M10 A2996 RMK A01 T00011102  RH  046%=      5-min Rain = 0
KAM1 221941Z 36028KT 00/M10 A2996 RMK A01 T00021102  RH  045%=      5-min Rain = 0
KAM1 221942Z 35022G28KT 00/10 A2996 RMK A01 T00000-104  RH  045%=      5-min Rain = 0
KAM1 221943Z 36024G33KT 00/M10 A2996 RMK A01 T00011103  RH  046%=      5-min Rain = 0
KAM1 221944Z 36023G28KT 00/M10 A2996 RMK A01 T00011103  RH  046%=      5-min Rain = 0
KAM1 221945Z 35027G33KT 00/M10 A2996 RMK A01 T00021102  RH  046%=      5-min Rain = 0
KAM1 221946Z 35024G29KT M00/M11 A2996 RMK A01 T10041108  RH  045%=      5-min Rain = 0
KAM1 221947Z 35018G23KT M01/M11 A2996 RMK A01 T10061107  RH  046%=      5-min Rain = 0
KAM1 221948Z 35027G33KT M00/M10 A2996 RMK A01 T10031101  RH  047%=      5-min Rain = 0
KAM1 221949Z 35025KT 00/10 A2996 RMK A01 T00-00-101  RH  047%=      5-min Rain = 0
KAM1 221950Z 35020KT 00/10 A2996 RMK A01 T00-00-102  RH  046%=      5-min Rain = 0
KAM1 221951Z 36026G32KT 00/M10 A2996 RMK A01 T00021099  RH  047%=      5-min Rain = 0
KAM1 221952Z 35026G32KT 00/M10 A2996 RMK A01 T00021100  RH  046%=      5-min Rain = 0
KAM1 221953Z 35024G29KT 00/10 A2996 RMK A01 T00-00-102  RH  046%=      5-min Rain = 0
KAM1 221954Z 36025KT M00/M10 A2997 RMK A01 T10011103  RH  046%=      5-min Rain = 0
KAM1 221955Z 35021KT M00/M10 A2996 RMK A01 T10041104  RH  047%=      5-min Rain = 0
KAM1 221956Z 35020G27KT M00/M10 A2996 RMK A01 T10031101  RH  047%=      5-min Rain = 0
KAM1 221957Z 35019KT 00/M10 A2997 RMK A01 T00011098  RH  048%=      5-min Rain = 0
KAM1 221958Z 35025G31KT 01/M09 A2997 RMK A01 T00051094  RH  047%=      5-min Rain = 0
KAM1 221959Z 35024G31KT 01/M10 A2997 RMK A01 T00051099  RH  046%=      5-min Rain = 0
KAM1 222000Z 34020KT 00/M10 A2996 RMK A01 T00021101  RH  046%=      5-min Rain = 0
KAM1 222001Z 34024G29KT 01/M10 A2996 RMK A01 T00061096  RH  046%=      5-min Rain = 0
KAM1 222002Z 34022KT 01/M10 A2996 RMK A01 T00091096  RH  046%=      5-min Rain = 0
KAM1 222003Z 34030G37KT 01/M10 A2996 RMK A01 T00101097  RH  045%=      5-min Rain = 0
KAM1 222004Z 34024KT 01/M10 A2997 RMK A01 T00061104  RH  044%=      5-min Rain = 0
KAM1 222005Z 34026G34KT 00/M11 A2996 RMK A01 T00031105  RH  044%=      5-min Rain = 0
KAM1 222006Z 34022G28KT 00/M10 A2996 RMK A01 T00021103  RH  045%=      5-min Rain = 0
KAM1 222007Z 34028G34KT 00/M10 A2996 RMK A01 T00041101  RH  045%=      5-min Rain = 0
KAM1 222008Z 33024G30KT 00/M10 A2996 RMK A01 T00031102  RH  045%=      5-min Rain = 0
KAM1 222009Z 34022G27KT 00/M10 A2996 RMK A01 T00041102  RH  045%=      5-min Rain = 0
KAM1 222010Z 35024G29KT 01/M10 A2996 RMK A01 T00061099  RH  045%=      5-min Rain = 0
KAM1 222011Z 35027KT 01/M10 A2996 RMK A01 T00081098  RH  045%=      5-min Rain = 0
KAM1 222012Z 35028G33KT 01/M10 A2997 RMK A01 T00071100  RH  045%=      5-min Rain = 0
KAM1 222013Z 36024G29KT 01/M10 A2997 RMK A01 T00061102  RH  044%=      5-min Rain = 0
KAM1 222014Z 36029G34KT 00/M10 A2997 RMK A01 T00041103  RH  044%=      5-min Rain = 0
KAM1 222015Z 36028G33KT 00/M11 A2997 RMK A01 T00021105  RH  044%=      5-min Rain = 0
KAM1 222016Z 35026G35KT 00/M10 A2997 RMK A01 T00031103  RH  045%=      5-min Rain = 0
KAM1 222017Z 34025KT 01/M10 A2997 RMK A01 T00061101  RH  044%=      5-min Rain = 0
KAM1 222018Z 34024G29KT 01/M10 A2997 RMK A01 T00071102  RH  044%=      5-min Rain = 0
KAM1 222019Z 34024KT 01/M11 A2997 RMK A01 T00051106  RH  043%=      5-min Rain = 0
KAM1 222020Z 34023G28KT M00/M11 A2997 RMK A01 T10011110  RH  044%=      5-min Rain = 0
KAM1 222021Z 34022KT M00/M11 A2997 RMK A01 T10021108  RH  045%=      5-min Rain = 0
KAM1 222022Z 34020G26KT 00/10 A2997 RMK A01 T00000-104  RH  045%=      5-min Rain = 0
KAM1 222023Z 34024G29KT 00/M10 A2997 RMK A01 T00041102  RH  045%=      5-min Rain = 0
KAM1 222024Z 33024G29KT 00/M11 A2997 RMK A01 T00041105  RH  044%=      5-min Rain = 0
KAM1 222025Z 34029KT 00/M11 A2997 RMK A01 T00021107  RH  044%=      5-min Rain = 0
KAM1 222026Z 34026G31KT 00/M11 A2996 RMK A01 T00021107  RH  044%=      5-min Rain = 0
KAM1 222027Z 34028KT 00/M11 A2997 RMK A01 T00021107  RH  044%=      5-min Rain = 0
KAM1 222028Z 35026G31KT 00/11 A2997 RMK A01 T00000-108  RH  044%=      5-min Rain = 0
KAM1 222029Z 35023G29KT M00/M11 A2997 RMK A01 T10011107  RH  044%=      5-min Rain = 0
KAM1 222030Z 35024G29KT 00/11 A2997 RMK A01 T00000-106  RH  045%=      5-min Rain = 0
KAM1 222031Z 36021G27KT 00/11 A2997 RMK A01 T00000-106  RH  045%=      5-min Rain = 0
KAM1 222032Z 35026G31KT 00/M10 A2998 RMK A01 T00021104  RH  045%=      5-min Rain = 0
KAM1 222033Z 34029G34KT 00/M11 A2997 RMK A01 T00021105  RH  044%=      5-min Rain = 0
KAM1 222034Z 34029G34KT 00/11 A2997 RMK A01 T00-00-106  RH  045%=      5-min Rain = 0
KAM1 222035Z 34025G30KT 00/M10 A2997 RMK A01 T00011104  RH  045%=      5-min Rain = 0
KAM1 222036Z 34028G33KT 00/M10 A2997 RMK A01 T00031103  RH  045%=      5-min Rain = 0
KAM1 222037Z 34027KT 00/M11 A2997 RMK A01 T00021105  RH  044%=      5-min Rain = 0
KAM1 222038Z 34026G33KT 00/M10 A2998 RMK A01 T00031104  RH  045%=      5-min Rain = 0
KAM1 222039Z 35027KT 00/M10 A2998 RMK A01 T00041103  RH  044%=      5-min Rain = 0
KAM1 222040Z 34022G28KT 01/M10 A2998 RMK A01 T00051103  RH  044%=      5-min Rain = 0
KAM1 222041Z 34023G29KT 01/M10 A2997 RMK A01 T00071102  RH  044%=      5-min Rain = 0
KAM1 222042Z 34022G29KT 01/M10 A2998 RMK A01 T00071103  RH  044%=      5-min Rain = 0
KAM1 222043Z 34026G32KT 01/M10 A2997 RMK A01 T00071103  RH  044%=      5-min Rain = 0
KAM1 222044Z 33029G36KT 00/M11 A2997 RMK A01 T00021108  RH  043%=      5-min Rain = 0
KAM1 222045Z 33027KT M00/M11 A2997 RMK A01 T10021110  RH  044%=      5-min Rain = 0
KAM1 222046Z 34026KT M00/M11 A2997 RMK A01 T10031109  RH  045%=      5-min Rain = 0
KAM1 222047Z 33024G30KT M00/M11 A2997 RMK A01 T10041108  RH  045%=      5-min Rain = 0
KAM1 222048Z 34029KT M00/M11 A2997 RMK A01 T10041107  RH  046%=      5-min Rain = 0
KAM1 222049Z 34023G30KT M00/M11 A2997 RMK A01 T10041107  RH  046%=      5-min Rain = 0
KAM1 222050Z 34027KT M01/M11 A2997 RMK A01 T10051108  RH  046%=      5-min Rain = 0
KAM1 222051Z 35027KT M01/M11 A2998 RMK A01 T10051108  RH  046%=      5-min Rain = 0
KAM1 222052Z 35025G34KT M01/M11 A2998 RMK A01 T10061108  RH  046%=      5-min Rain = 0
KAM1 222053Z 35029G34KT M01/M11 A2998 RMK A01 T10051107  RH  046%=      5-min Rain = 0
KAM1 222054Z 34026G32KT M00/M11 A2997 RMK A01 T10011105  RH  046%=      5-min Rain = 0
KAM1 222055Z 34027G34KT 00/M10 A2997 RMK A01 T00011104  RH  045%=      5-min Rain = 0
KAM1 222056Z 34029G37KT 00/M10 A2998 RMK A01 T00031104  RH  044%=      5-min Rain = 0
KAM1 222057Z 34027G34KT 01/M11 A2998 RMK A01 T00051105  RH  044%=      5-min Rain = 0
KAM1 222058Z 34030KT 01/M11 A2998 RMK A01 T00051106  RH  043%=      5-min Rain = 0
KAM1 222059Z 34029KT 01/M11 A2997 RMK A01 T00061105  RH  043%=      5-min Rain = 0
KAM1 222100Z 34028G34KT 01/M11 A2998 RMK A01 T00071105  RH  043%=      5-min Rain = 0
KAM1 222101Z 33030G36KT 01/M11 A2998 RMK A01 T00081106  RH  042%=      5-min Rain = 0
KAM1 222102Z 34030G37KT 01/M11 A2998 RMK A01 T00061109  RH  042%=      5-min Rain = 0
KAM1 222103Z 34029G35KT 00/M11 A2998 RMK A01 T00041109  RH  042%=      5-min Rain = 0
KAM1 222104Z 34021G28KT 00/M11 A2998 RMK A01 T00041108  RH  043%=      5-min Rain = 0
KAM1 222105Z 34023G29KT 01/M10 A2998 RMK A01 T00091101  RH  044%=      5-min Rain = 0
KAM1 222106Z 35027G32KT 01/M10 A2998 RMK A01 T00131100  RH  043%=      5-min Rain = 0
KAM1 222107Z 36025KT 01/M11 A2999 RMK A01 T00101105  RH  042%=      5-min Rain = 0
KAM1 222108Z 35025G31KT 01/M11 A2998 RMK A01 T00051109  RH  042%=      5-min Rain = 0
KAM1 222109Z 36027KT 00/M11 A2998 RMK A01 T00021109  RH  043%=      5-min Rain = 0
KAM1 222110Z 36027G32KT 00/11 A2998 RMK A01 T00000-109  RH  044%=      5-min Rain = 0
KAM1 222111Z 36027KT 00/M11 A2998 RMK A01 T00011107  RH  044%=      5-min Rain = 0
KAM1 222112Z 36025G32KT 00/M11 A2999 RMK A01 T00031105  RH  044%=      5-min Rain = 0
KAM1 222113Z 36024G30KT 00/M11 A2998 RMK A01 T00041105  RH  044%=      5-min Rain = 0
KAM1 222114Z 36023KT 00/M11 A2998 RMK A01 T00041107  RH  043%=      5-min Rain = 0
KAM1 222115Z 35023G30KT 01/M11 A2999 RMK A01 T00051105  RH  043%=      5-min Rain = 0
KAM1 222116Z 35024KT 01/M10 A2999 RMK A01 T00081104  RH  043%=      5-min Rain = 0
KAM1 222117Z 35024G32KT 01/M11 A2999 RMK A01 T00071107  RH  042%=      5-min Rain = 0
KAM1 222118Z 34019G24KT 01/M11 A2999 RMK A01 T00071107  RH  042%=      5-min Rain = 0
KAM1 222119Z 35030KT 01/M11 A2998 RMK A01 T00101105  RH  042%=      5-min Rain = 0
KAM1 222120Z 35025G33KT 01/M11 A2998 RMK A01 T00101108  RH  041%=      5-min Rain = 0
KAM1 222121Z 35028G35KT 01/M11 A2999 RMK A01 T00101108  RH  041%=      5-min Rain = 0
KAM1 222122Z 35026G31KT 01/M11 A2999 RMK A01 T00111108  RH  041%=      5-min Rain = 0
KAM1 222123Z 35028G34KT 01/M11 A2999 RMK A01 T00111109  RH  040%=      5-min Rain = 0
KAM1 222124Z 00025G35KT 01/M11 A2999 RMK A01 T00111110  RH  040%=      5-min Rain = 0
KAM1 222125Z 36027KT 01/M11 A2999 RMK A01 T00121109  RH  040%=      5-min Rain = 0
KAM1 222126Z 36024G30KT 01/M11 A2999 RMK A01 T00141108  RH  040%=      5-min Rain = 0
KAM1 222127Z 35022G27KT 02/M11 A2999 RMK A01 T00151107  RH  040%=      5-min Rain = 0
KAM1 222128Z 34027G34KT 02/M11 A2999 RMK A01 T00151108  RH  040%=      5-min Rain = 0
KAM1 222129Z 34026G32KT 01/M11 A2999 RMK A01 T00131111  RH  039%=      5-min Rain = 0
KAM1 222130Z 34022KT 01/M11 A2999 RMK A01 T00111111  RH  040%=      5-min Rain = 0
KAM1 222131Z 35022KT 01/M11 A2999 RMK A01 T00121109  RH  040%=      5-min Rain = 0
KAM1 222132Z 35024G29KT 01/M11 A2999 RMK A01 T00141108  RH  040%=      5-min Rain = 0
KAM1 222133Z 35024KT 01/M11 A2999 RMK A01 T00141108  RH  040%=      5-min Rain = 0
KAM1 222134Z 35023G28KT 02/M11 A2999 RMK A01 T00151107  RH  040%=      5-min Rain = 0
KAM1 222135Z 00024G34KT 02/M11 A30 RMK A01 T00151107  RH  040%=      5-min Rain = 0
KAM1 222136Z 35029KT 02/M11 A30 RMK A01 T00151107  RH  040%=      5-min Rain = 0
KAM1 222137Z 35025G31KT 01/M11 A30 RMK A01 T00121111  RH  039%=      5-min Rain = 0
KAM1 222138Z 35026G33KT 01/M11 A30 RMK A01 T00101112  RH  040%=      5-min Rain = 0
KAM1 222139Z 00027G33KT 01/M11 A30 RMK A01 T00091110  RH  040%=      5-min Rain = 0
KAM1 222140Z 34029G34KT 01/M11 A30 RMK A01 T00091110  RH  040%=      5-min Rain = 0
KAM1 222141Z 35028G34KT 01/M11 A30 RMK A01 T00091110  RH  041%=      5-min Rain = 0
KAM1 222142Z 36022G30KT 01/M11 A30 RMK A01 T00081111  RH  041%=      5-min Rain = 0
KAM1 222143Z 34022G27KT 01/M11 A30 RMK A01 T00071111  RH  041%=      5-min Rain = 0
KAM1 222144Z 35023KT 01/M11 A30 RMK A01 T00071109  RH  041%=      5-min Rain = 0
KAM1 222145Z 35021G28KT 01/M11 A30 RMK A01 T00091107  RH  041%=      5-min Rain = 0
KAM1 222146Z 35023G29KT 01/M11 A3001 RMK A01 T00121106  RH  041%=      5-min Rain = 0
KAM1 222147Z 35023G30KT 01/M11 A3001 RMK A01 T00101109  RH  041%=      5-min Rain = 0
KAM1 222148Z 34023KT 01/M11 A3001 RMK A01 T00071111  RH  041%=      5-min Rain = 0
KAM1 222149Z 35022G27KT 01/M11 A3001 RMK A01 T00051111  RH  042%=      5-min Rain = 0
KAM1 222150Z 35025KT 00/M11 A3001 RMK A01 T00041110  RH  042%=      5-min Rain = 0
KAM1 222151Z 36024G30KT 00/M11 A3001 RMK A01 T00031110  RH  042%=      5-min Rain = 0
KAM1 222152Z 00024KT 00/M11 A3001 RMK A01 T00031108  RH  043%=      5-min Rain = 0
KAM1 222153Z 00029G37KT 00/M11 A3001 RMK A01 T00021107  RH  044%=      5-min Rain = 0
KAM1 222154Z 35026G33KT 00/M11 A3001 RMK A01 T00021106  RH  044%=      5-min Rain = 0
KAM1 222155Z 35028G34KT 00/M10 A3001 RMK A01 T00021104  RH  045%=      5-min Rain = 0
KAM1 222156Z 35026G33KT 00/M10 A3002 RMK A01 T00021104  RH  045%=      5-min Rain = 0
KAM1 222157Z 35023G31KT 00/M10 A3001 RMK A01 T00021104  RH  045%=      5-min Rain = 0
KAM1 222158Z 36022G29KT 00/M10 A3002 RMK A01 T00011104  RH  045%=      5-min Rain = 0
KAM1 222159Z 36026KT 00/M11 A3002 RMK A01 T00021105  RH  045%=      5-min Rain = 0
KAM1 222200Z 01028G33KT 00/M11 A3002 RMK A01 T00011106  RH  044%=      5-min Rain = 0
KAM1 222201Z 00026KT 00/M11 A3002 RMK A01 T00011105  RH  045%=      5-min Rain = 0
KAM1 222202Z 36024G30KT 00/M10 A3002 RMK A01 T00021103  RH  045%=      5-min Rain = 0
KAM1 222203Z 36021G30KT 00/M10 A3002 RMK A01 T00031101  RH  045%=      5-min Rain = 0
KAM1 222204Z 36028KT 01/M10 A3002 RMK A01 T00061098  RH  046%=      5-min Rain = 0
KAM1 222205Z 34027G32KT 01/M10 A3001 RMK A01 T00051100  RH  045%=      5-min Rain = 0
KAM1 222206Z 35028G33KT 00/M10 A3002 RMK A01 T00031101  RH  046%=      5-min Rain = 0
KAM1 222207Z 35027G34KT 00/M10 A3002 RMK A01 T00021101  RH  046%=      5-min Rain = 0
KAM1 222208Z 35027G33KT 00/M10 A3002 RMK A01 T00031100  RH  046%=      5-min Rain = 0
KAM1 222209Z 35030KT 00/M10 A3002 RMK A01 T00031099  RH  046%=      5-min Rain = 0
KAM1 222210Z 35024KT 00/M10 A3002 RMK A01 T00031098  RH  047%=      5-min Rain = 0
KAM1 222211Z 34028KT 00/M10 A3002 RMK A01 T00041097  RH  047%=      5-min Rain = 0
KAM1 222212Z 34026G33KT 00/M10 A3002 RMK A01 T00031097  RH  047%=      5-min Rain = 0
KAM1 222213Z 34027KT 00/M10 A3002 RMK A01 T00021098  RH  047%=      5-min Rain = 0
KAM1 222214Z 35023G30KT 00/10 A3002 RMK A01 T00-00-99  RH  047%=      5-min Rain = 0
KAM1 222215Z 36022G28KT 00/10 A3003 RMK A01 T00000-97  RH  048%=      5-min Rain = 0
KAM1 222216Z 00024KT 00/10 A3003 RMK A01 T00000-96  RH  048%=      5-min Rain = 0
KAM1 222217Z 35022KT 00/10 A3003 RMK A01 T00-00-95  RH  049%=      5-min Rain = 0
KAM1 222218Z 00022KT 00/M09 A3003 RMK A01 T00011093  RH  049%=      5-min Rain = 0
KAM1 222219Z 36021KT 00/M09 A3003 RMK A01 T00031091  RH  049%=      5-min Rain = 0
KAM1 222220Z 35022G28KT 00/M09 A3003 RMK A01 T00031092  RH  049%=      5-min Rain = 0
KAM1 222221Z 36024KT 00/M09 A3003 RMK A01 T00041092  RH  049%=      5-min Rain = 0
KAM1 222222Z 35022KT 00/M09 A3003 RMK A01 T00041091  RH  049%=      5-min Rain = 0
KAM1 222223Z 35023G28KT 01/M09 A3004 RMK A01 T00051089  RH  049%=      5-min Rain = 0
KAM1 222224Z 35024KT 01/M09 A3003 RMK A01 T00061088  RH  049%=      5-min Rain = 0
KAM1 222225Z 36020G26KT 01/M09 A3003 RMK A01 T00071089  RH  049%=      5-min Rain = 0
KAM1 222226Z 35027KT 01/M09 A3004 RMK A01 T00071088  RH  049%=      5-min Rain = 0
KAM1 222227Z 34024KT 01/M09 A3004 RMK A01 T00071089  RH  049%=      5-min Rain = 0
KAM1 222228Z 34023G29KT 01/M09 A3003 RMK A01 T00061091  RH  048%=      5-min Rain = 0
KAM1 222229Z 34025G30KT 00/M09 A3003 RMK A01 T00041092  RH  048%=      5-min Rain = 0
KAM1 222230Z 34026KT 00/M09 A3004 RMK A01 T00021093  RH  049%=      5-min Rain = 0
KAM1 222231Z 34024KT M00/M09 A3004 RMK A01 T10011094  RH  049%=      5-min Rain = 0
KAM1 222232Z 35019KT M00/M09 A3004 RMK A01 T10021094  RH  050%=      5-min Rain = 0
KAM1 222233Z 35020KT M00/M09 A3004 RMK A01 T10011091  RH  051%=      5-min Rain = 0
KAM1 222234Z 00019G25KT 00/M09 A3004 RMK A01 T00031088  RH  050%=      5-min Rain = 0
KAM1 222235Z 00019KT 01/M09 A3004 RMK A01 T00051089  RH  050%=      5-min Rain = 0
KAM1 222236Z 00020KT 01/M09 A3004 RMK A01 T00061089  RH  049%=      5-min Rain = 0
KAM1 222237Z 00018KT 01/M09 A3004 RMK A01 T00051091  RH  049%=      5-min Rain = 0
KAM1 222238Z 35020G25KT 00/M09 A3004 RMK A01 T00031091  RH  049%=      5-min Rain = 0
KAM1 222239Z 35027KT 00/M09 A3004 RMK A01 T00031091  RH  049%=      5-min Rain = 0
KAM1 222240Z 35027KT 00/M09 A3004 RMK A01 T00011092  RH  050%=      5-min Rain = 0
KAM1 222241Z 35024G29KT M00/M09 A3004 RMK A01 T10011092  RH  050%=      5-min Rain = 0
KAM1 222242Z 36024G29KT M00/M09 A3004 RMK A01 T10011091  RH  051%=      5-min Rain = 0
KAM1 222243Z 35022G27KT M00/M09 A3004 RMK A01 T10011090  RH  051%=      5-min Rain = 0
KAM1 222244Z 35022KT 00/M09 A3004 RMK A01 T00011088  RH  051%=      5-min Rain = 0
KAM1 222245Z 35023G28KT 00/M09 A3004 RMK A01 T00011089  RH  051%=      5-min Rain = 0
KAM1 222246Z 35022KT 00/M09 A3004 RMK A01 T00011089  RH  051%=      5-min Rain = 0
KAM1 222247Z 35027KT M00/M09 A3004 RMK A01 T10011091  RH  050%=      5-min Rain = 0
KAM1 222248Z 36020G26KT M00/M09 A3004 RMK A01 T10011091  RH  051%=      5-min Rain = 0
KAM1 222249Z 36024KT M00/M09 A3004 RMK A01 T10011091  RH  051%=      5-min Rain = 0
KAM1 222250Z 35022KT M00/M09 A3004 RMK A01 T10021092  RH  051%=      5-min Rain = 0
KAM1 222251Z 35023KT M00/M09 A3005 RMK A01 T10041093  RH  051%=      5-min Rain = 0
KAM1 222252Z 35020KT M01/M09 A3005 RMK A01 T10051093  RH  051%=      5-min Rain = 0
KAM1 222253Z 36016G21KT M01/M09 A3005 RMK A01 T10061093  RH  052%=      5-min Rain = 0
KAM1 222254Z 36021G29KT M01/M09 A3005 RMK A01 T10061093  RH  052%=      5-min Rain = 0
KAM1 222255Z 36021KT M01/M09 A3005 RMK A01 T10061093  RH  052%=      5-min Rain = 0
KAM1 222256Z 36021G29KT M01/M09 A3005 RMK A01 T10071094  RH  052%=      5-min Rain = 0
KAM1 222257Z 36017G23KT M01/M10 A3005 RMK A01 T10081095  RH  052%=      5-min Rain = 0
KAM1 222258Z 36019KT M01/M09 A3005 RMK A01 T10071094  RH  052%=      5-min Rain = 0
KAM1 222259Z 36018G24KT M01/M10 A3005 RMK A01 T10071095  RH  052%=      5-min Rain = 0
KAM1 222300Z 36017KT M01/M09 A3005 RMK A01 T10071094  RH  052%=      5-min Rain = 0
KAM1 222301Z 36020KT M01/M09 A3006 RMK A01 T10071094  RH  052%=      5-min Rain = 0
KAM1 222302Z 36022G28KT M01/M09 A3006 RMK A01 T10071094  RH  052%=      5-min Rain = 0
KAM1 222303Z 36023KT M01/M09 A3006 RMK A01 T10071093  RH  052%=      5-min Rain = 0
KAM1 222304Z 35024G29KT M01/M09 A3006 RMK A01 T10071094  RH  052%=      5-min Rain = 0
KAM1 222305Z 35023KT M01/M09 A3006 RMK A01 T10071093  RH  052%=      5-min Rain = 0
KAM1 222306Z 36024G30KT M01/M09 A3006 RMK A01 T10071093  RH  052%=      5-min Rain = 0
KAM1 222307Z 36027G32KT M01/M09 A3006 RMK A01 T10081093  RH  052%=      5-min Rain = 0
KAM1 222308Z 36021KT M01/M09 A3006 RMK A01 T10091093  RH  053%=      5-min Rain = 0
KAM1 222309Z 36023G29KT M01/M09 A3006 RMK A01 T10091092  RH  053%=      5-min Rain = 0
KAM1 222310Z 35024G31KT M01/M09 A3006 RMK A01 T10091092  RH  053%=      5-min Rain = 0
KAM1 222311Z 35020G26KT M01/M09 A3006 RMK A01 T10091092  RH  053%=      5-min Rain = 0
KAM1 222312Z 35024G29KT M01/M09 A3006 RMK A01 T10091091  RH  054%=      5-min Rain = 0
KAM1 222313Z 36023G28KT M01/M09 A3006 RMK A01 T10081091  RH  054%=      5-min Rain = 0
KAM1 222314Z 36021G27KT M01/M09 A3006 RMK A01 T10091091  RH  054%=      5-min Rain = 0
KAM1 222315Z 00020G28KT M01/M09 A3007 RMK A01 T10091091  RH  054%=      5-min Rain = 0
KAM1 222316Z 36022G27KT M01/M09 A3007 RMK A01 T10091091  RH  054%=      5-min Rain = 0
KAM1 222317Z 36020G25KT M01/M09 A3007 RMK A01 T10091091  RH  054%=      5-min Rain = 0
KAM1 222318Z 36021G26KT M01/M09 A3007 RMK A01 T10091090  RH  054%=      5-min Rain = 0
KAM1 222319Z 36023G28KT M01/M09 A3007 RMK A01 T10101090  RH  054%=      5-min Rain = 0
KAM1 222320Z 36020KT M01/M09 A3007 RMK A01 T10101090  RH  055%=      5-min Rain = 0
KAM1 222321Z 35019KT M01/M09 A3007 RMK A01 T10111090  RH  055%=      5-min Rain = 0
KAM1 222322Z 35017G22KT M01/M09 A3007 RMK A01 T10101089  RH  055%=      5-min Rain = 0
KAM1 222323Z 35016G22KT M01/M09 A3006 RMK A01 T10111089  RH  055%=      5-min Rain = 0
KAM1 222324Z 35019G25KT M01/M09 A3007 RMK A01 T10101089  RH  055%=      5-min Rain = 0
KAM1 222325Z 35021G27KT M01/M09 A3007 RMK A01 T10111089  RH  055%=      5-min Rain = 0
KAM1 222326Z 36023KT M01/M09 A3006 RMK A01 T10131090  RH  056%=      5-min Rain = 0
KAM1 222327Z 35019G24KT M01/M09 A3006 RMK A01 T10141089  RH  056%=      5-min Rain = 0
KAM1 222328Z 35022G27KT M02/M09 A3006 RMK A01 T10151089  RH  057%=      5-min Rain = 0
KAM1 222329Z 35021G27KT M02/M09 A3006 RMK A01 T10161089  RH  057%=      5-min Rain = 0
KAM1 222330Z 35019KT M02/M09 A3006 RMK A01 T10161089  RH  058%=      5-min Rain = 0
KAM1 222331Z 00019G24KT M02/M09 A3007 RMK A01 T10161088  RH  058%=      5-min Rain = 0
KAM1 222332Z 36020KT M02/M09 A3007 RMK A01 T10161088  RH  058%=      5-min Rain = 0
KAM1 222333Z 35025KT M02/M09 A3007 RMK A01 T10171088  RH  058%=      5-min Rain = 0
KAM1 222334Z 35022G29KT M02/M09 A3007 RMK A01 T10181088  RH  059%=      5-min Rain = 0
KAM1 222335Z 35021G27KT M02/M09 A3007 RMK A01 T10181088  RH  059%=      5-min Rain = 0
KAM1 222336Z 00020G25KT M02/M09 A3007 RMK A01 T10191088  RH  059%=      5-min Rain = 0
KAM1 222337Z 35018KT M02/M09 A3007 RMK A01 T10201088  RH  060%=      5-min Rain = 0
KAM1 222338Z 35023G28KT M02/M09 A3007 RMK A01 T10211088  RH  060%=      5-min Rain = 0
KAM1 222339Z 34020G26KT M02/M09 A3007 RMK A01 T10201088  RH  060%=      5-min Rain = 0
KAM1 222340Z 35019KT M02/M09 A3007 RMK A01 T10201088  RH  059%=      5-min Rain = 0
KAM1 222341Z 35019G24KT M02/M09 A3007 RMK A01 T10191088  RH  059%=      5-min Rain = 0
KAM1 222342Z 35021KT M02/M09 A3007 RMK A01 T10201088  RH  059%=      5-min Rain = 0
KAM1 222343Z 35019G26KT M02/M09 A3007 RMK A01 T10201088  RH  060%=      5-min Rain = 0
KAM1 222344Z 35018KT M02/M09 A3007 RMK A01 T10201088  RH  060%=      5-min Rain = 0
KAM1 222345Z 35017KT M02/M09 A3007 RMK A01 T10201088  RH  060%=      5-min Rain = 0
KAM1 222346Z 36020G26KT M02/M09 A3007 RMK A01 T10211087  RH  060%=      5-min Rain = 0
KAM1 222347Z 00022KT M02/M09 A3007 RMK A01 T10211087  RH  061%=      5-min Rain = 0
KAM1 222348Z 35022KT M02/M09 A3007 RMK A01 T10211086  RH  061%=      5-min Rain = 0
KAM1 222349Z 35022KT M02/M09 A3007 RMK A01 T10211086  RH  061%=      5-min Rain = 0
KAM1 222350Z 35019KT M02/M09 A3007 RMK A01 T10211086  RH  061%=      5-min Rain = 0
KAM1 222351Z 35019KT M02/M09 A3007 RMK A01 T10211086  RH  061%=      5-min Rain = 0
KAM1 222352Z 36021KT M02/M09 A3008 RMK A01 T10221085  RH  062%=      5-min Rain = 0
KAM1 222353Z 35018KT M02/M09 A3007 RMK A01 T10221085  RH  062%=      5-min Rain = 0
KAM1 222354Z 35019KT M02/M09 A3008 RMK A01 T10231085  RH  062%=      5-min Rain = 0
KAM1 222355Z 36022KT M02/M08 A3008 RMK A01 T10231084  RH  063%=      5-min Rain = 0
KAM1 222356Z 35024G29KT M02/M08 A3007 RMK A01 T10231084  RH  063%=      5-min Rain = 0
KAM1 222357Z 35017G23KT M02/M08 A3008 RMK A01 T10231084  RH  063%=      5-min Rain = 0
KAM1 222358Z 35019G27KT M02/M08 A3008 RMK A01 T10231084  RH  063%=      5-min Rain = 0
KAM1 222359Z 35020G25KT M02/M08 A3008 RMK A01 T10231083  RH  064%=      5-min Rain = 0
KAM1 230000Z 35021G26KT M02/M08 A3008 RMK A01 T10231083  RH  064%=      5-min Rain = 0
KAM1 230001Z 35019G24KT M02/M08 A3008 RMK A01 T10231082  RH  064%=      5-min Rain = 0
KAM1 230002Z 34018KT M02/M08 A3008 RMK A01 T10231082  RH  064%=      5-min Rain = 0
KAM1 230003Z 35019KT M02/M08 A3008 RMK A01 T10231081  RH  064%=      5-min Rain = 0
KAM1 230004Z 35017KT M02/M08 A3008 RMK A01 T10231081  RH  064%=      5-min Rain = 0
KAM1 230005Z 35017KT M02/M08 A3008 RMK A01 T10231081  RH  065%=      5-min Rain = 0
KAM1 230006Z 35019G28KT M02/M08 A3008 RMK A01 T10231081  RH  065%=      5-min Rain = 0
KAM1 230007Z 35022KT M02/M08 A3009 RMK A01 T10231081  RH  065%=      5-min Rain = 0
KAM1 230008Z 35017G22KT M02/M08 A3009 RMK A01 T10231080  RH  065%=      5-min Rain = 0
KAM1 230009Z 34018KT M02/M08 A3009 RMK A01 T10231080  RH  065%=      5-min Rain = 0
KAM1 230010Z 34020G26KT M02/M08 A3009 RMK A01 T10231080  RH  065%=      5-min Rain = 0
KAM1 230011Z 35018KT M02/M08 A3009 RMK A01 T10241079  RH  066%=      5-min Rain = 0
KAM1 230012Z 34015KT M02/M08 A3009 RMK A01 T10241079  RH  066%=      5-min Rain = 0
KAM1 230013Z 34017KT M02/M08 A3009 RMK A01 T10241079  RH  066%=      5-min Rain = 0
KAM1 230014Z 35016KT M02/M08 A3009 RMK A01 T10241078  RH  066%=      5-min Rain = 0
KAM1 230015Z 36018KT M02/M08 A3009 RMK A01 T10241078  RH  066%=      5-min Rain = 0
KAM1 230016Z 35019KT M02/M08 A3009 RMK A01 T10231078  RH  066%=      5-min Rain = 0
KAM1 230017Z 35018KT M02/M08 A3009 RMK A01 T10231077  RH  066%=      5-min Rain = 0
KAM1 230018Z 35016KT M02/M08 A3009 RMK A01 T10231077  RH  066%=      5-min Rain = 0
KAM1 230019Z 35018KT M02/M08 A3009 RMK A01 T10231077  RH  066%=      5-min Rain = 0
KAM1 230020Z 35019KT M02/M08 A3009 RMK A01 T10231077  RH  066%=      5-min Rain = 0
KAM1 230021Z 34019KT M02/M08 A3009 RMK A01 T10231077  RH  066%=      5-min Rain = 0
KAM1 230022Z 35016KT M02/M08 A3009 RMK A01 T10231077  RH  066%=      5-min Rain = 0
KAM1 230023Z 35015KT M02/M08 A3009 RMK A01 T10231077  RH  066%=      5-min Rain = 0
KAM1 230024Z 35013KT M02/M08 A3009 RMK A01 T10231077  RH  066%=      5-min Rain = 0
KAM1 230025Z 35020KT M02/M08 A3009 RMK A01 T10231077  RH  067%=      5-min Rain = 0
KAM1 230026Z 35019KT M02/M08 A301 RMK A01 T10231076  RH  067%=      5-min Rain = 0
KAM1 230027Z 35018G23KT M02/M08 A301 RMK A01 T10221076  RH  067%=      5-min Rain = 0
KAM1 230028Z 35015KT M02/M08 A301 RMK A01 T10221075  RH  067%=      5-min Rain = 0
KAM1 230029Z 35020KT M02/M08 A301 RMK A01 T10221075  RH  067%=      5-min Rain = 0
KAM1 230030Z 35017KT M02/M08 A301 RMK A01 T10221076  RH  067%=      5-min Rain = 0
KAM1 230031Z 35015KT M02/M08 A301 RMK A01 T10221075  RH  067%=      5-min Rain = 0
KAM1 230032Z 35018KT M02/M08 A301 RMK A01 T10221075  RH  067%=      5-min Rain = 0
KAM1 230033Z 35022KT M02/M08 A301 RMK A01 T10221075  RH  067%=      5-min Rain = 0
KAM1 230034Z 35020KT M02/M07 A301 RMK A01 T10221074  RH  067%=      5-min Rain = 0
KAM1 230035Z 35019G25KT M02/M07 A301 RMK A01 T10221074  RH  067%=      5-min Rain = 0
KAM1 230036Z 34014KT M02/M07 A301 RMK A01 T10211073  RH  067%=      5-min Rain = 0
KAM1 230037Z 34019KT M02/M07 A301 RMK A01 T10211074  RH  068%=      5-min Rain = 0
KAM1 230038Z 35019KT M02/M07 A301 RMK A01 T10211073  RH  068%=      5-min Rain = 0
KAM1 230039Z 35017KT M02/M07 A301 RMK A01 T10211073  RH  068%=      5-min Rain = 0
KAM1 230040Z 35015KT M02/M07 A301 RMK A01 T10221073  RH  068%=      5-min Rain = 0
KAM1 230041Z 34015KT M02/M07 A301 RMK A01 T10221074  RH  068%=      5-min Rain = 0
KAM1 230042Z 35013KT M02/M08 A301 RMK A01 T10241075  RH  068%=      5-min Rain = 0
KAM1 230043Z 34018G23KT M03/M08 A301 RMK A01 T10251075  RH  068%=      5-min Rain = 0
KAM1 230044Z 34017KT M03/M07 A301 RMK A01 T10251074  RH  069%=      5-min Rain = 0
KAM1 230045Z 34014KT M03/M07 A301 RMK A01 T10251074  RH  069%=      5-min Rain = 0
KAM1 230046Z 34016KT M03/M08 A301 RMK A01 T10261075  RH  069%=      5-min Rain = 0
KAM1 230047Z 34014KT M03/M08 A301 RMK A01 T10271075  RH  070%=      5-min Rain = 0
KAM1 230048Z 35015G20KT M03/M08 A301 RMK A01 T10271075  RH  070%=      5-min Rain = 0
KAM1 230049Z 35017KT M03/M07 A301 RMK A01 T10271074  RH  070%=      5-min Rain = 0
KAM1 230050Z 34017KT M03/M07 A301 RMK A01 T10271074  RH  070%=      5-min Rain = 0
KAM1 230051Z 34014KT M03/M07 A3011 RMK A01 T10271073  RH  071%=      5-min Rain = 0
KAM1 230052Z 34015KT M03/M07 A3011 RMK A01 T10271073  RH  071%=      5-min Rain = 0
KAM1 230053Z 34015KT M03/M07 A3011 RMK A01 T10281073  RH  071%=      5-min Rain = 0
KAM1 230054Z 35012KT M03/M07 A3011 RMK A01 T10271073  RH  071%=      5-min Rain = 0
KAM1 230055Z 35014KT M03/M07 A3011 RMK A01 T10281074  RH  071%=      5-min Rain = 0
KAM1 230056Z 34014KT M03/M07 A3011 RMK A01 T10281073  RH  071%=      5-min Rain = 0
KAM1 230057Z 35015KT M03/M07 A3011 RMK A01 T10281073  RH  071%=      5-min Rain = 0
KAM1 230058Z 34013KT M03/M07 A3011 RMK A01 T10281072  RH  072%=      5-min Rain = 0
KAM1 230059Z 34014KT M03/M07 A3011 RMK A01 T10281072  RH  072%=      5-min Rain = 0
KAM1 230100Z 34014KT M03/M07 A3011 RMK A01 T10281072  RH  072%=      5-min Rain = 0
KAM1 230101Z 34013KT M03/M07 A3011 RMK A01 T10281072  RH  072%=      5-min Rain = 0
KAM1 230102Z 34015KT M03/M07 A3011 RMK A01 T10281072  RH  072%=      5-min Rain = 0
KAM1 230103Z 34013KT M03/M07 A3011 RMK A01 T10281072  RH  072%=      5-min Rain = 0
KAM1 230104Z 34012KT M03/M07 A3011 RMK A01 T10281072  RH  072%=      5-min Rain = 0
KAM1 230105Z 34014KT M03/M07 A3011 RMK A01 T10291072  RH  072%=      5-min Rain = 0
KAM1 230106Z 34013G18KT M03/M07 A3011 RMK A01 T10291072  RH  072%=      5-min Rain = 0
KAM1 230107Z 34014KT M03/M07 A3011 RMK A01 T10291072  RH  073%=      5-min Rain = 0
KAM1 230108Z 34013KT M03/M07 A3011 RMK A01 T10291072  RH  073%=      5-min Rain = 0
KAM1 230109Z 34015KT M03/M07 A3011 RMK A01 T10291072  RH  073%=      5-min Rain = 0
KAM1 230110Z 34013KT M03/M07 A3011 RMK A01 T10301072  RH  073%=      5-min Rain = 0
KAM1 230111Z 34014G20KT M03/M07 A3011 RMK A01 T10301072  RH  073%=      5-min Rain = 0
KAM1 230112Z 34016KT M03/M07 A3011 RMK A01 T10301071  RH  073%=      5-min Rain = 0
KAM1 230113Z 34015G20KT M03/M07 A3011 RMK A01 T10291070  RH  074%=      5-min Rain = 0
KAM1 230114Z 34017KT M03/M07 A3011 RMK A01 T10291070  RH  074%=      5-min Rain = 0
KAM1 230115Z 34013KT M03/M07 A3011 RMK A01 T10281069  RH  074%=      5-min Rain = 0
KAM1 230116Z 34012KT M03/M07 A3011 RMK A01 T10291070  RH  073%=      5-min Rain = 0
KAM1 230117Z 34012KT M03/M07 A3011 RMK A01 T10301071  RH  073%=      5-min Rain = 0
KAM1 230118Z 34011KT M03/M07 A3011 RMK A01 T10311071  RH  074%=      5-min Rain = 0
KAM1 230119Z 34013KT M03/M07 A3011 RMK A01 T10311071  RH  074%=      5-min Rain = 0
KAM1 230120Z 34015KT M03/M07 A3011 RMK A01 T10311070  RH  074%=      5-min Rain = 0
KAM1 230121Z 34013KT M03/M07 A3011 RMK A01 T10301069  RH  074%=      5-min Rain = 0
KAM1 230122Z 34013KT M03/M07 A3011 RMK A01 T10301070  RH  074%=      5-min Rain = 0
KAM1 230123Z 34013KT M03/M07 A3011 RMK A01 T10301070  RH  074%=      5-min Rain = 0
KAM1 230124Z 34015KT M03/M07 A3011 RMK A01 T10311070  RH  074%=      5-min Rain = 0
KAM1 230125Z 34017KT M03/M07 A3011 RMK A01 T10301069  RH  075%=      5-min Rain = 0
KAM1 230126Z 34014KT M03/M07 A3011 RMK A01 T10291068  RH  074%=      5-min Rain = 0
KAM1 230127Z 34013KT M03/M07 A3011 RMK A01 T10291069  RH  074%=      5-min Rain = 0
KAM1 230128Z 35016KT M03/M07 A3011 RMK A01 T10291069  RH  074%=      5-min Rain = 0
KAM1 230129Z 35013KT M03/M07 A3011 RMK A01 T10291069  RH  074%=      5-min Rain = 0
KAM1 230130Z 35016G21KT M03/M07 A3011 RMK A01 T10291069  RH  074%=      5-min Rain = 0
KAM1 230131Z 34015KT M03/M07 A3011 RMK A01 T10291069  RH  074%=      5-min Rain = 0
KAM1 230132Z 34015KT M03/M07 A3011 RMK A01 T10291068  RH  074%=      5-min Rain = 0
KAM1 230133Z 35016KT M03/M07 A3011 RMK A01 T10291068  RH  074%=      5-min Rain = 0
KAM1 230134Z 34014KT M03/M07 A3011 RMK A01 T10291068  RH  074%=      5-min Rain = 0
KAM1 230135Z 35016KT M03/M07 A3011 RMK A01 T10291068  RH  074%=      5-min Rain = 0
KAM1 230136Z 35014KT M03/M07 A3011 RMK A01 T10291069  RH  074%=      5-min Rain = 0
KAM1 230137Z 34013KT M03/M07 A3011 RMK A01 T10291069  RH  074%=      5-min Rain = 0
KAM1 230138Z 34013KT M03/M07 A3011 RMK A01 T10301069  RH  074%=      5-min Rain = 0
KAM1 230139Z 35014KT M03/M07 A3011 RMK A01 T10301069  RH  074%=      5-min Rain = 0
KAM1 230140Z 35014KT M03/M07 A3011 RMK A01 T10301069  RH  074%=      5-min Rain = 0
KAM1 230141Z 34014KT M03/M07 A3011 RMK A01 T10301069  RH  075%=      5-min Rain = 0
KAM1 230142Z 34013KT M03/M07 A3012 RMK A01 T10301069  RH  075%=      5-min Rain = 0
KAM1 230143Z 35012KT M03/M07 A3012 RMK A01 T10311070  RH  075%=      5-min Rain = 0
KAM1 230144Z 34012KT M03/M07 A3012 RMK A01 T10321070  RH  075%=      5-min Rain = 0
KAM1 230145Z 34014KT M03/M07 A3012 RMK A01 T10311070  RH  075%=      5-min Rain = 0
KAM1 230146Z 35015KT M03/M07 A3012 RMK A01 T10311069  RH  075%=      5-min Rain = 0
KAM1 230147Z 34014KT M03/M07 A3012 RMK A01 T10311069  RH  075%=      5-min Rain = 0
KAM1 230148Z 34014KT M03/M07 A3012 RMK A01 T10311069  RH  075%=      5-min Rain = 0
KAM1 230149Z 35012G17KT M03/M07 A3012 RMK A01 T10311069  RH  075%=      5-min Rain = 0
KAM1 230150Z 35015KT M03/M07 A3012 RMK A01 T10311069  RH  075%=      5-min Rain = 0
KAM1 230151Z 34014KT M03/M07 A3012 RMK A01 T10311069  RH  075%=      5-min Rain = 0
KAM1 230152Z 34014KT M03/M07 A3012 RMK A01 T10301069  RH  075%=      5-min Rain = 0
KAM1 230153Z 34011KT M03/M07 A3012 RMK A01 T10311070  RH  075%=      5-min Rain = 0
KAM1 230154Z 34015KT M03/M07 A3012 RMK A01 T10311070  RH  074%=      5-min Rain = 0
KAM1 230155Z 35015KT M03/M07 A3012 RMK A01 T10311070  RH  074%=      5-min Rain = 0
KAM1 230201Z 34014KT M03/M07 A3012 RMK A01 T10311071  RH  074%=      5-min Rain = 0
KAM1 230202Z 35015KT M03/M07 A3012 RMK A01 T10311071  RH  074%=      5-min Rain = 0
KAM1 230203Z 34016KT M03/M07 A3012 RMK A01 T10301070  RH  074%=      5-min Rain = 0
KAM1 230204Z 34015KT M03/M07 A3012 RMK A01 T10291070  RH  074%=      5-min Rain = 0
KAM1 230205Z 34016KT M03/M07 A3012 RMK A01 T10301071  RH  073%=      5-min Rain = 0
KAM1 230206Z 34015KT M03/M07 A3012 RMK A01 T10291071  RH  073%=      5-min Rain = 0
KAM1 230207Z 34016KT M03/M07 A3012 RMK A01 T10291071  RH  072%=      5-min Rain = 0
KAM1 230208Z 34014KT M03/M07 A3012 RMK A01 T10291072  RH  072%=      5-min Rain = 0
KAM1 230209Z 34018KT M03/M07 A3012 RMK A01 T10301073  RH  072%=      5-min Rain = 0
KAM1 230210Z 34017KT M03/M07 A3012 RMK A01 T10291073  RH  072%=      5-min Rain = 0
KAM1 230211Z 34017G22KT M03/M07 A3012 RMK A01 T10291073  RH  071%=      5-min Rain = 0
KAM1 230212Z 34017KT M03/M07 A3012 RMK A01 T10281073  RH  071%=      5-min Rain = 0
KAM1 230213Z 34017G23KT M03/M07 A3012 RMK A01 T10271073  RH  071%=      5-min Rain = 0
KAM1 230214Z 34017KT M03/M07 A3012 RMK A01 T10271074  RH  070%=      5-min Rain = 0
KAM1 230215Z 34015KT M03/M07 A3012 RMK A01 T10271074  RH  070%=      5-min Rain = 0
KAM1 230216Z 34015KT M03/M07 A3012 RMK A01 T10271074  RH  070%=      5-min Rain = 0
KAM1 230217Z 34018KT M03/M08 A3012 RMK A01 T10281075  RH  070%=      5-min Rain = 0
KAM1 230218Z 34016KT M03/M08 A3012 RMK A01 T10281075  RH  070%=      5-min Rain = 0
KAM1 230219Z 34017KT M03/M08 A3012 RMK A01 T10291075  RH  070%=      5-min Rain = 0
KAM1 230220Z 34016KT M03/M08 A3013 RMK A01 T10291076  RH  070%=      5-min Rain = 0
KAM1 230221Z 34020KT M03/M08 A3012 RMK A01 T10291075  RH  070%=      5-min Rain = 0
KAM1 230222Z 34019KT M03/M08 A3012 RMK A01 T10281075  RH  070%=      5-min Rain = 0
KAM1 230223Z 35018KT M03/M08 A3012 RMK A01 T10281076  RH  069%=      5-min Rain = 0
KAM1 230224Z 34018KT M03/M08 A3012 RMK A01 T10281076  RH  069%=      5-min Rain = 0
KAM1 230225Z 35016KT M03/M08 A3013 RMK A01 T10281076  RH  069%=      5-min Rain = 0
KAM1 230226Z 34016KT M03/M08 A3012 RMK A01 T10291077  RH  069%=      5-min Rain = 0
KAM1 230227Z 34018KT M03/M08 A3013 RMK A01 T10291077  RH  069%=      5-min Rain = 0
KAM1 230228Z 34020KT M03/M08 A3012 RMK A01 T10291077  RH  069%=      5-min Rain = 0
KAM1 230229Z 34020KT M03/M08 A3012 RMK A01 T10281077  RH  069%=      5-min Rain = 0
KAM1 230230Z 34018KT M03/M08 A3013 RMK A01 T10271077  RH  069%=      5-min Rain = 0
KAM1 230231Z 34016KT M03/M08 A3013 RMK A01 T10281077  RH  068%=      5-min Rain = 0
KAM1 230232Z 34017G22KT M03/M08 A3013 RMK A01 T10281078  RH  069%=      5-min Rain = 0
KAM1 230233Z 34018KT M03/M08 A3013 RMK A01 T10291078  RH  069%=      5-min Rain = 0
KAM1 230234Z 34017KT M03/M08 A3013 RMK A01 T10291078  RH  069%=      5-min Rain = 0
KAM1 230235Z 35021G26KT M03/M08 A3012 RMK A01 T10291078  RH  069%=      5-min Rain = 0
KAM1 230236Z 34017G23KT M03/M08 A3013 RMK A01 T10281078  RH  069%=      5-min Rain = 0
KAM1 230237Z 34017KT M03/M08 A3013 RMK A01 T10281078  RH  068%=      5-min Rain = 0
KAM1 230238Z 34018G23KT M03/M08 A3013 RMK A01 T10291079  RH  068%=      5-min Rain = 0
KAM1 230239Z 34020KT M03/M08 A3012 RMK A01 T10291079  RH  068%=      5-min Rain = 0
KAM1 230240Z 34021G27KT M03/M08 A3013 RMK A01 T10281079  RH  068%=      5-min Rain = 0
KAM1 230241Z 34020G25KT M03/M08 A3013 RMK A01 T10271079  RH  068%=      5-min Rain = 0
KAM1 230242Z 34019KT M03/M08 A3013 RMK A01 T10271080  RH  067%=      5-min Rain = 0
KAM1 230243Z 34020KT M03/M08 A3013 RMK A01 T10271080  RH  067%=      5-min Rain = 0
KAM1 230244Z 34015KT M03/M08 A3013 RMK A01 T10271080  RH  067%=      5-min Rain = 0
KAM1 230245Z 33018G23KT M03/M08 A3013 RMK A01 T10281081  RH  067%=      5-min Rain = 0
KAM1 230246Z 34017KT M03/M08 A3013 RMK A01 T10291080  RH  068%=      5-min Rain = 0
KAM1 230247Z 34015KT M03/M08 A3013 RMK A01 T10291081  RH  067%=      5-min Rain = 0
KAM1 230248Z 34016KT M03/M08 A3013 RMK A01 T10301081  RH  068%=      5-min Rain = 0
KAM1 230249Z 34017G24KT M03/M08 A3013 RMK A01 T10301081  RH  068%=      5-min Rain = 0
KAM1 230250Z 34019KT M03/M08 A3013 RMK A01 T10301081  RH  068%=      5-min Rain = 0
KAM1 230251Z 34019KT M03/M08 A3013 RMK A01 T10291081  RH  067%=      5-min Rain = 0
KAM1 230252Z 34018KT M03/M08 A3013 RMK A01 T10291081  RH  067%=      5-min Rain = 0
KAM1 230253Z 34019G24KT M03/M08 A3013 RMK A01 T10291082  RH  067%=      5-min Rain = 0
KAM1 230254Z 34019G24KT M03/M08 A3013 RMK A01 T10291082  RH  067%=      5-min Rain = 0
KAM1 230255Z 34018KT M03/M08 A3013 RMK A01 T10291082  RH  066%=      5-min Rain = 0
KAM1 230256Z 34017KT M03/M08 A3013 RMK A01 T10281082  RH  066%=      5-min Rain = 0
KAM1 230257Z 34018G25KT M03/M08 A3013 RMK A01 T10281083  RH  066%=      5-min Rain = 0
KAM1 230258Z 34018KT M03/M08 A3013 RMK A01 T10281083  RH  066%=      5-min Rain = 0
KAM1 230259Z 34018G23KT M03/M08 A3013 RMK A01 T10281084  RH  066%=      5-min Rain = 0
KAM1 230300Z 35017G23KT M03/M08 A3013 RMK A01 T10281084  RH  065%=      5-min Rain = 0
KAM1 230301Z 34019KT M03/M08 A3013 RMK A01 T10281084  RH  065%=      5-min Rain = 0
KAM1 230302Z 34019KT M03/M08 A3014 RMK A01 T10281084  RH  065%=      5-min Rain = 0
KAM1 230303Z 35018KT M03/M09 A3013 RMK A01 T10281085  RH  065%=      5-min Rain = 0
KAM1 230304Z 35018G23KT M03/M09 A3013 RMK A01 T10281085  RH  064%=      5-min Rain = 0
KAM1 230305Z 35023KT M03/M09 A3014 RMK A01 T10271086  RH  064%=      5-min Rain = 0
KAM1 230306Z 34020KT M03/M09 A3013 RMK A01 T10271086  RH  064%=      5-min Rain = 0
KAM1 230307Z 34021KT M03/M09 A3013 RMK A01 T10261086  RH  064%=      5-min Rain = 0
KAM1 230308Z 35017G22KT M03/M09 A3013 RMK A01 T10271087  RH  063%=      5-min Rain = 0
KAM1 230309Z 35017G22KT M03/M09 A3014 RMK A01 T10271087  RH  063%=      5-min Rain = 0
KAM1 230310Z 34018KT M03/M09 A3014 RMK A01 T10281087  RH  064%=      5-min Rain = 0
KAM1 230311Z 34017G22KT M03/M09 A3014 RMK A01 T10281087  RH  064%=      5-min Rain = 0
KAM1 230312Z 34018KT M03/M09 A3014 RMK A01 T10281087  RH  064%=      5-min Rain = 0
KAM1 230313Z 34016KT M03/M09 A3014 RMK A01 T10281087  RH  064%=      5-min Rain = 0
KAM1 230314Z 35015KT M03/M09 A3014 RMK A01 T10281087  RH  064%=      5-min Rain = 0
KAM1 230315Z 34017G23KT M03/M09 A3014 RMK A01 T10281088  RH  064%=      5-min Rain = 0
KAM1 230316Z 34019KT M03/M09 A3014 RMK A01 T10291088  RH  064%=      5-min Rain = 0
KAM1 230317Z 35019G24KT M03/M09 A3014 RMK A01 T10281087  RH  063%=      5-min Rain = 0
KAM1 230318Z 34019KT M03/M09 A3014 RMK A01 T10271088  RH  063%=      5-min Rain = 0
KAM1 230319Z 34017KT M03/M09 A3014 RMK A01 T10271088  RH  063%=      5-min Rain = 0
KAM1 230320Z 34018KT M03/M09 A3014 RMK A01 T10271088  RH  063%=      5-min Rain = 0
KAM1 230321Z 34016KT M03/M09 A3014 RMK A01 T10271088  RH  063%=      5-min Rain = 0
KAM1 230322Z 35019G25KT M03/M09 A3014 RMK A01 T10281089  RH  063%=      5-min Rain = 0
KAM1 230323Z 34015KT M03/M09 A3014 RMK A01 T10281089  RH  063%=      5-min Rain = 0
KAM1 230324Z 34013KT M03/M09 A3014 RMK A01 T10281089  RH  063%=      5-min Rain = 0
KAM1 230325Z 35016KT M03/M09 A3014 RMK A01 T10291090  RH  063%=      5-min Rain = 0
KAM1 230326Z 34017KT M03/M09 A3014 RMK A01 T10291089  RH  064%=      5-min Rain = 0
KAM1 230327Z 34018G23KT M03/M09 A3014 RMK A01 T10291089  RH  064%=      5-min Rain = 0
KAM1 230328Z 35017G23KT M03/M09 A3014 RMK A01 T10291088  RH  064%=      5-min Rain = 0
KAM1 230329Z 35021KT M03/M09 A3014 RMK A01 T10291089  RH  063%=      5-min Rain = 0
KAM1 230330Z 34017G22KT M03/M09 A3014 RMK A01 T10281088  RH  063%=      5-min Rain = 0
KAM1 230331Z 35018KT M03/M09 A3014 RMK A01 T10281089  RH  063%=      5-min Rain = 0
KAM1 230332Z 34016G22KT M03/M09 A3014 RMK A01 T10281089  RH  063%=      5-min Rain = 0
KAM1 230333Z 34017KT M03/M09 A3013 RMK A01 T10281089  RH  063%=      5-min Rain = 0
KAM1 230334Z 34018KT M03/M09 A3014 RMK A01 T10291089  RH  063%=      5-min Rain = 0
KAM1 230335Z 34018KT M03/M09 A3013 RMK A01 T10291089  RH  063%=      5-min Rain = 0
KAM1 230336Z 34022G27KT M03/M09 A3013 RMK A01 T10291089  RH  063%=      5-min Rain = 0
KAM1 230337Z 35020KT M03/M09 A3013 RMK A01 T10281089  RH  063%=      5-min Rain = 0
KAM1 230338Z 34021G26KT M03/M09 A3014 RMK A01 T10281089  RH  063%=      5-min Rain = 0
KAM1 230339Z 34017G22KT M03/M09 A3014 RMK A01 T10281089  RH  063%=      5-min Rain = 0
KAM1 230340Z 35018G25KT M03/M09 A3014 RMK A01 T10281089  RH  063%=      5-min Rain = 0
KAM1 230341Z 34019KT M03/M09 A3014 RMK A01 T10291089  RH  063%=      5-min Rain = 0
KAM1 230342Z 35021KT M03/M09 A3014 RMK A01 T10291089  RH  063%=      5-min Rain = 0
KAM1 230343Z 34018G23KT M03/M09 A3014 RMK A01 T10291089  RH  063%=      5-min Rain = 0
KAM1 230344Z 34025KT M03/M09 A3014 RMK A01 T10291089  RH  063%=      5-min Rain = 0
KAM1 230345Z 35021G28KT M03/M09 A3014 RMK A01 T10281089  RH  063%=      5-min Rain = 0
KAM1 230346Z 34021G27KT M03/M09 A3014 RMK A01 T10281089  RH  063%=      5-min Rain = 0
KAM1 230347Z 35020KT M03/M09 A3014 RMK A01 T10281089  RH  063%=      5-min Rain = 0
KAM1 230348Z 34018KT M03/M09 A3014 RMK A01 T10291090  RH  063%=      5-min Rain = 0
KAM1 230349Z 34019KT M03/M09 A3014 RMK A01 T10291089  RH  063%=      5-min Rain = 0
KAM1 230350Z 34015KT M03/M09 A3014 RMK A01 T10291089  RH  063%=      5-min Rain = 0
KAM1 230351Z 34019KT M03/M09 A3014 RMK A01 T10301090  RH  063%=      5-min Rain = 0
KAM1 230352Z 34016G21KT M03/M09 A3014 RMK A01 T10301090  RH  064%=      5-min Rain = 0
KAM1 230353Z 35016G22KT M03/M09 A3014 RMK A01 T10311090  RH  064%=      5-min Rain = 0
KAM1 230354Z 35018KT M03/M09 A3014 RMK A01 T10311090  RH  064%=      5-min Rain = 0
KAM1 230355Z 34017KT M03/M09 A3014 RMK A01 T10311089  RH  064%=      5-min Rain = 0
KAM1 230356Z 34017KT M03/M09 A3014 RMK A01 T10311089  RH  064%=      5-min Rain = 0
KAM1 230357Z 35017KT M03/M09 A3014 RMK A01 T10311089  RH  064%=      5-min Rain = 0
KAM1 230358Z 35019KT M03/M09 A3014 RMK A01 T10301089  RH  064%=      5-min Rain = 0
KAM1 230359Z 35017KT M03/M09 A3014 RMK A01 T10311089  RH  064%=      5-min Rain = 0
KAM1 230400Z 34016KT M03/M09 A3014 RMK A01 T10311089  RH  064%=      5-min Rain = 0
KAM1 230401Z 34019KT M03/M09 A3014 RMK A01 T10311089  RH  064%=      5-min Rain = 0
KAM1 230402Z 34017G22KT M03/M09 A3014 RMK A01 T10321089  RH  064%=      5-min Rain = 0
KAM1 230403Z 34015G22KT M03/M09 A3014 RMK A01 T10311089  RH  065%=      5-min Rain = 0
KAM1 230404Z 35020KT M03/M09 A3014 RMK A01 T10321089  RH  065%=      5-min Rain = 0
KAM1 230405Z 34016G21KT M03/M09 A3015 RMK A01 T10321089  RH  065%=      5-min Rain = 0
KAM1 230406Z 34017KT M03/M09 A3015 RMK A01 T10311089  RH  065%=      5-min Rain = 0
KAM1 230407Z 35018KT M03/M09 A3015 RMK A01 T10321089  RH  065%=      5-min Rain = 0
KAM1 230408Z 35014KT M03/M09 A3015 RMK A01 T10321089  RH  065%=      5-min Rain = 0
KAM1 230409Z 34014KT M03/M09 A3015 RMK A01 T10321089  RH  065%=      5-min Rain = 0
KAM1 230410Z 34013KT M03/M09 A3015 RMK A01 T10331089  RH  065%=      5-min Rain = 0
KAM1 230411Z 34015KT M03/M09 A3015 RMK A01 T10341089  RH  065%=      5-min Rain = 0
KAM1 230412Z 34014KT M03/M09 A3015 RMK A01 T10341089  RH  066%=      5-min Rain = 0
KAM1 230413Z 35013KT M03/M09 A3015 RMK A01 T10341089  RH  066%=      5-min Rain = 0
KAM1 230414Z 34015KT M03/M09 A3015 RMK A01 T10341089  RH  066%=      5-min Rain = 0
KAM1 230415Z 34013KT M03/M09 A3015 RMK A01 T10341089  RH  066%=      5-min Rain = 0
KAM1 230416Z 34012KT M04/M09 A3015 RMK A01 T10351089  RH  066%=      5-min Rain = 0
KAM1 230417Z 35015KT M04/M09 A3015 RMK A01 T10351089  RH  066%=      5-min Rain = 0
KAM1 230418Z 34014KT M04/M09 A3015 RMK A01 T10351089  RH  067%=      5-min Rain = 0
KAM1 230419Z 34014KT M04/M09 A3015 RMK A01 T10351088  RH  067%=      5-min Rain = 0
KAM1 230420Z 34016KT M04/M09 A3015 RMK A01 T10361089  RH  067%=      5-min Rain = 0
KAM1 230421Z 35017KT M04/M09 A3016 RMK A01 T10351088  RH  067%=      5-min Rain = 0
KAM1 230422Z 34013KT M04/M09 A3015 RMK A01 T10351088  RH  067%=      5-min Rain = 0
KAM1 230423Z 34012KT M04/M09 A3016 RMK A01 T10361089  RH  067%=      5-min Rain = 0
KAM1 230424Z 34013KT M04/M09 A3016 RMK A01 T10361089  RH  067%=      5-min Rain = 0
KAM1 230425Z 34013KT M04/M09 A3016 RMK A01 T10371088  RH  067%=      5-min Rain = 0
KAM1 230426Z 34014KT M04/M09 A3016 RMK A01 T10361088  RH  067%=      5-min Rain = 0
KAM1 230427Z 34013KT M04/M09 A3015 RMK A01 T10361088  RH  067%=      5-min Rain = 0
KAM1 230428Z 34014KT M04/M09 A3016 RMK A01 T10371088  RH  068%=      5-min Rain = 0
KAM1 230429Z 34013KT M04/M09 A3016 RMK A01 T10371088  RH  068%=      5-min Rain = 0
KAM1 230430Z 34012KT M04/M09 A3015 RMK A01 T10371088  RH  068%=      5-min Rain = 0
KAM1 230431Z 34015KT M04/M09 A3015 RMK A01 T10371088  RH  068%=      5-min Rain = 0
KAM1 230432Z 34012KT M04/M09 A3016 RMK A01 T10371088  RH  068%=      5-min Rain = 0
KAM1 230433Z 34013KT M04/M09 A3016 RMK A01 T10371088  RH  068%=      5-min Rain = 0
KAM1 230434Z 33013KT M04/M09 A3016 RMK A01 T10371088  RH  068%=      5-min Rain = 0
KAM1 230435Z 34011KT M04/M09 A3016 RMK A01 T10381089  RH  068%=      5-min Rain = 0
KAM1 230436Z 33012KT M04/M09 A3016 RMK A01 T10391089  RH  068%=      5-min Rain = 0
KAM1 230437Z 34012KT M04/M09 A3016 RMK A01 T10391088  RH  069%=      5-min Rain = 0
KAM1 230438Z 34010KT M04/M09 A3016 RMK A01 T10391088  RH  069%=      5-min Rain = 0
KAM1 230439Z 34011KT M04/M09 A3016 RMK A01 T10401089  RH  069%=      5-min Rain = 0
KAM1 230440Z 33011KT M04/M09 A3016 RMK A01 T10401089  RH  069%=      5-min Rain = 0
KAM1 230441Z 34011KT M04/M09 A3016 RMK A01 T10411089  RH  069%=      5-min Rain = 0
KAM1 230442Z 34012KT M04/M09 A3016 RMK A01 T10401088  RH  069%=      5-min Rain = 0
KAM1 230443Z 34013KT M04/M09 A3016 RMK A01 T10411088  RH  070%=      5-min Rain = 0
KAM1 230444Z 33011KT M04/M09 A3016 RMK A01 T10401088  RH  070%=      5-min Rain = 0
KAM1 230445Z 34010KT M04/M09 A3016 RMK A01 T10401088  RH  070%=      5-min Rain = 0
KAM1 230446Z 33011KT M04/M09 A3016 RMK A01 T10411088  RH  070%=      5-min Rain = 0
KAM1 230447Z 34011KT M04/M09 A3016 RMK A01 T10411088  RH  070%=      5-min Rain = 0
KAM1 230448Z 34011KT M04/M09 A3015 RMK A01 T10421088  RH  070%=      5-min Rain = 0
KAM1 230449Z 34011KT M04/M09 A3015 RMK A01 T10421088  RH  070%=      5-min Rain = 0
KAM1 230450Z 34012KT M04/M09 A3015 RMK A01 T10431088  RH  071%=      5-min Rain = 0
KAM1 230451Z 34012KT M04/M09 A3015 RMK A01 T10431088  RH  071%=      5-min Rain = 0
KAM1 230452Z 33012KT M04/M09 A3015 RMK A01 T10431087  RH  071%=      5-min Rain = 0
KAM1 230453Z 34011KT M04/M09 A3015 RMK A01 T10431087  RH  071%=      5-min Rain = 0
KAM1 230454Z 33011KT M04/M09 A3015 RMK A01 T10431088  RH  071%=      5-min Rain = 0
KAM1 230455Z 33012KT M04/M09 A3015 RMK A01 T10441088  RH  072%=      5-min Rain = 0
KAM1 230456Z 33011KT M04/M09 A3015 RMK A01 T10441088  RH  072%=      5-min Rain = 0
KAM1 230457Z 33011KT M05/M09 A3015 RMK A01 T10451088  RH  072%=      5-min Rain = 0
KAM1 230458Z 33010KT M05/M09 A3015 RMK A01 T10461088  RH  072%=      5-min Rain = 0
KAM1 230459Z 34010KT M05/M09 A3015 RMK A01 T10461088  RH  072%=      5-min Rain = 0
KAM1 230500Z 33010KT M05/M09 A3015 RMK A01 T10471089  RH  073%=      5-min Rain = 0
KAM1 230501Z 33010KT M05/M09 A3015 RMK A01 T10471089  RH  073%=      5-min Rain = 0
KAM1 230502Z 33010KT M05/M09 A3015 RMK A01 T10471089  RH  073%=      5-min Rain = 0
KAM1 230503Z 33009KT M05/M09 A3015 RMK A01 T10471089  RH  073%=      5-min Rain = 0
KAM1 230504Z 33009KT M05/M09 A3015 RMK A01 T10481089  RH  073%=      5-min Rain = 0
KAM1 230505Z 33009KT M05/M09 A3015 RMK A01 T10481089  RH  073%=      5-min Rain = 0
KAM1 230506Z 32009KT M05/M09 A3015 RMK A01 T10481090  RH  073%=      5-min Rain = 0
KAM1 230507Z 32009KT M05/M09 A3015 RMK A01 T10481090  RH  073%=      5-min Rain = 0
KAM1 230508Z 32008KT M05/M09 A3015 RMK A01 T10481090  RH  073%=      5-min Rain = 0
KAM1 230509Z 32008KT M05/M09 A3015 RMK A01 T10481090  RH  072%=      5-min Rain = 0
KAM1 230510Z 32009KT M05/M09 A3015 RMK A01 T10491091  RH  072%=      5-min Rain = 0
KAM1 230511Z 32009KT M05/M09 A3015 RMK A01 T10491091  RH  072%=      5-min Rain = 0
KAM1 230512Z 32010KT M05/M09 A3015 RMK A01 T10491091  RH  072%=      5-min Rain = 0
KAM1 230513Z 31008KT M05/M09 A3015 RMK A01 T10491091  RH  072%=      5-min Rain = 0
KAM1 230514Z 31009KT M05/M09 A3015 RMK A01 T10491092  RH  072%=      5-min Rain = 0
KAM1 230515Z 31009KT M05/M09 A3015 RMK A01 T10501092  RH  072%=      5-min Rain = 0
KAM1 230516Z 31009KT M05/M09 A3015 RMK A01 T10491091  RH  072%=      5-min Rain = 0
KAM1 230517Z 32009KT M05/M09 A3015 RMK A01 T10491091  RH  072%=      5-min Rain = 0
KAM1 230518Z 32009KT M05/M09 A3015 RMK A01 T10501092  RH  072%=      5-min Rain = 0
KAM1 230519Z 32009KT M05/M09 A3015 RMK A01 T10501092  RH  072%=      5-min Rain = 0
KAM1 230520Z 32009KT M05/M09 A3015 RMK A01 T10491091  RH  072%=      5-min Rain = 0
KAM1 230521Z 31009KT M05/M09 A3016 RMK A01 T10491092  RH  072%=      5-min Rain = 0
KAM1 230522Z 32008KT M05/M09 A3016 RMK A01 T10491092  RH  072%=      5-min Rain = 0
KAM1 230523Z 32009KT M05/M09 A3016 RMK A01 T10491092  RH  072%=      5-min Rain = 0
KAM1 230524Z 31009KT M05/M09 A3016 RMK A01 T10491092  RH  072%=      5-min Rain = 0
KAM1 230525Z 31010KT M05/M09 A3016 RMK A01 T10491092  RH  072%=      5-min Rain = 0
KAM1 230526Z 31009KT M05/M09 A3016 RMK A01 T10491092  RH  072%=      5-min Rain = 0
KAM1 230527Z 32011KT M05/M09 A3016 RMK A01 T10501093  RH  072%=      5-min Rain = 0
KAM1 230528Z 31012KT M05/M09 A3016 RMK A01 T10491092  RH  072%=      5-min Rain = 0
KAM1 230529Z 31010KT M05/M09 A3016 RMK A01 T10471091  RH  071%=      5-min Rain = 0
KAM1 230530Z 31011KT M05/M09 A3016 RMK A01 T10471091  RH  071%=      5-min Rain = 0
KAM1 230531Z 31010KT M05/M09 A3016 RMK A01 T10481092  RH  071%=      5-min Rain = 0
KAM1 230532Z 31011KT M05/M09 A3016 RMK A01 T10491093  RH  071%=      5-min Rain = 0
KAM1 230533Z 31011KT M05/M09 A3016 RMK A01 T10491093  RH  071%=      5-min Rain = 0
KAM1 230534Z 31009KT M05/M09 A3016 RMK A01 T10491093  RH  071%=      5-min Rain = 0
KAM1 230535Z 31010KT M05/M09 A3016 RMK A01 T10491093  RH  071%=      5-min Rain = 0
KAM1 230536Z 31010KT M05/M09 A3016 RMK A01 T10501094  RH  071%=      5-min Rain = 0
KAM1 230537Z 31011KT M05/M09 A3016 RMK A01 T10511094  RH  072%=      5-min Rain = 0
KAM1 230538Z 30011KT M05/M09 A3016 RMK A01 T10511094  RH  072%=      5-min Rain = 0
KAM1 230539Z 31011KT M05/M09 A3016 RMK A01 T10511093  RH  072%=      5-min Rain = 0
KAM1 230540Z 31012KT M05/M09 A3016 RMK A01 T10501093  RH  072%=      5-min Rain = 0
KAM1 230541Z 30012KT M05/M09 A3016 RMK A01 T10491092  RH  072%=      5-min Rain = 0
KAM1 230542Z 30013KT M05/M09 A3016 RMK A01 T10491093  RH  072%=      5-min Rain = 0
KAM1 230543Z 31012KT M05/M09 A3016 RMK A01 T10491092  RH  072%=      5-min Rain = 0
KAM1 230544Z 31012KT M05/M09 A3016 RMK A01 T10491092  RH  072%=      5-min Rain = 0
KAM1 230545Z 30011KT M05/M09 A3016 RMK A01 T10501093  RH  072%=      5-min Rain = 0
KAM1 230546Z 31011KT M05/M09 A3016 RMK A01 T10501093  RH  072%=      5-min Rain = 0
KAM1 230547Z 31010KT M05/M09 A3016 RMK A01 T10501093  RH  072%=      5-min Rain = 0
KAM1 230548Z 30012G17KT M05/M09 A3016 RMK A01 T10501093  RH  072%=      5-min Rain = 0
KAM1 230549Z 31011KT M05/M09 A3016 RMK A01 T10501092  RH  072%=      5-min Rain = 0
KAM1 230550Z 31010KT M05/M09 A3016 RMK A01 T10491093  RH  072%=      5-min Rain = 0
KAM1 230551Z 30012KT M05/M09 A3016 RMK A01 T10491093  RH  071%=      5-min Rain = 0
KAM1 230552Z 31011KT M05/M09 A3016 RMK A01 T10491093  RH  071%=      5-min Rain = 0
KAM1 230553Z 30011KT M05/M09 A3016 RMK A01 T10491093  RH  071%=      5-min Rain = 0
KAM1 230554Z 31012KT M05/M09 A3016 RMK A01 T10491093  RH  071%=      5-min Rain = 0
KAM1 230555Z 30012KT M05/M09 A3016 RMK A01 T10491093  RH  071%=      5-min Rain = 0
KAM1 230556Z 30012KT M05/M09 A3016 RMK A01 T10491093  RH  071%=      5-min Rain = 0
KAM1 230557Z 31012KT M05/M09 A3016 RMK A01 T10491094  RH  071%=      5-min Rain = 0
KAM1 230558Z 31010KT M05/M09 A3016 RMK A01 T10491093  RH  071%=      5-min Rain = 0
KAM1 230559Z 30012KT M05/M09 A3016 RMK A01 T10491094  RH  071%=      5-min Rain = 0

Page generated in 0.0908 seconds.